<?xml version="1.0" encoding="UTF-8" standalone="no" ?>
<gpx xmlns="http://www.topografix.com/GPX/1/1" xmlns:xsi="http://www.w3.org/2001/XMLSchema-instance" xsi:schemaLocation="http://www.topografix.com/GPX/1/1 http://www.topografix.com/GPX/1/1/gpx.xsd" version="1.1" creator="VisuGPX - https://www.visugpx.com">
  <metadata>
    <name>Maison gare Chantiers Versailles 12 avril 2012</name>
    <desc><![CDATA[Maison gare Chantiers Versailles 12 avril 2012]]></desc>
  </metadata>
  <trk>
    <name><![CDATA[12-AVR-12 MAISON VERSAILLES]]></name>
    <trkseg>
      <trkpt lat="48.82448" lon="1.97624">
        <ele>116.94</ele>
        <time>2012-04-12T05:18:38Z</time>
      </trkpt>
      <trkpt lat="48.82445" lon="1.97632">
        <ele>115.5</ele>
        <time>2012-04-12T05:18:58Z</time>
      </trkpt>
      <trkpt lat="48.82441" lon="1.97636">
        <ele>115.5</ele>
        <time>2012-04-12T05:19:07Z</time>
      </trkpt>
      <trkpt lat="48.82434" lon="1.97628">
        <ele>126.07</ele>
        <time>2012-04-12T05:19:28Z</time>
      </trkpt>
      <trkpt lat="48.8244" lon="1.97625">
        <ele>128.95</ele>
        <time>2012-04-12T05:19:50Z</time>
      </trkpt>
      <trkpt lat="48.82444" lon="1.97624">
        <ele>129.92</ele>
        <time>2012-04-12T05:20:10Z</time>
      </trkpt>
      <trkpt lat="48.82441" lon="1.97647">
        <ele>129.43</ele>
        <time>2012-04-12T05:20:26Z</time>
      </trkpt>
      <trkpt lat="48.82441" lon="1.97649">
        <ele>129.43</ele>
        <time>2012-04-12T05:20:27Z</time>
      </trkpt>
      <trkpt lat="48.82438" lon="1.97681">
        <ele>129.43</ele>
        <time>2012-04-12T05:20:45Z</time>
      </trkpt>
      <trkpt lat="48.82427" lon="1.9769">
        <ele>125.11</ele>
        <time>2012-04-12T05:20:59Z</time>
      </trkpt>
      <trkpt lat="48.8242" lon="1.97693">
        <ele>121.26</ele>
        <time>2012-04-12T05:21:06Z</time>
      </trkpt>
      <trkpt lat="48.82414" lon="1.97693">
        <ele>120.78</ele>
        <time>2012-04-12T05:21:10Z</time>
      </trkpt>
      <trkpt lat="48.8239" lon="1.97695">
        <ele>117.9</ele>
        <time>2012-04-12T05:21:28Z</time>
      </trkpt>
      <trkpt lat="48.82374" lon="1.97702">
        <ele>113.09</ele>
        <time>2012-04-12T05:21:42Z</time>
      </trkpt>
      <trkpt lat="48.82356" lon="1.97701">
        <ele>108.29</ele>
        <time>2012-04-12T05:21:58Z</time>
      </trkpt>
      <trkpt lat="48.82348" lon="1.97698">
        <ele>106.84</ele>
        <time>2012-04-12T05:22:04Z</time>
      </trkpt>
      <trkpt lat="48.82323" lon="1.97691">
        <ele>103.96</ele>
        <time>2012-04-12T05:22:22Z</time>
      </trkpt>
      <trkpt lat="48.82305" lon="1.97687">
        <ele>109.73</ele>
        <time>2012-04-12T05:22:37Z</time>
      </trkpt>
      <trkpt lat="48.82295" lon="1.97694">
        <ele>114.53</ele>
        <time>2012-04-12T05:22:51Z</time>
      </trkpt>
      <trkpt lat="48.82289" lon="1.97726">
        <ele>117.9</ele>
        <time>2012-04-12T05:23:08Z</time>
      </trkpt>
      <trkpt lat="48.82283" lon="1.97761">
        <ele>122.22</ele>
        <time>2012-04-12T05:23:26Z</time>
      </trkpt>
      <trkpt lat="48.82281" lon="1.97772">
        <ele>123.67</ele>
        <time>2012-04-12T05:23:33Z</time>
      </trkpt>
      <trkpt lat="48.82279" lon="1.97778">
        <ele>124.63</ele>
        <time>2012-04-12T05:23:37Z</time>
      </trkpt>
      <trkpt lat="48.82276" lon="1.97793">
        <ele>127.03</ele>
        <time>2012-04-12T05:23:45Z</time>
      </trkpt>
      <trkpt lat="48.8227" lon="1.97831">
        <ele>127.51</ele>
        <time>2012-04-12T05:24:05Z</time>
      </trkpt>
      <trkpt lat="48.82265" lon="1.9786">
        <ele>129.43</ele>
        <time>2012-04-12T05:24:21Z</time>
      </trkpt>
      <trkpt lat="48.82265" lon="1.97863">
        <ele>129.92</ele>
        <time>2012-04-12T05:24:23Z</time>
      </trkpt>
      <trkpt lat="48.82262" lon="1.97872">
        <ele>129.92</ele>
        <time>2012-04-12T05:24:28Z</time>
      </trkpt>
      <trkpt lat="48.82255" lon="1.97914">
        <ele>132.32</ele>
        <time>2012-04-12T05:24:49Z</time>
      </trkpt>
      <trkpt lat="48.8225" lon="1.9795">
        <ele>134.72</ele>
        <time>2012-04-12T05:25:08Z</time>
      </trkpt>
      <trkpt lat="48.82244" lon="1.9799">
        <ele>136.16</ele>
        <time>2012-04-12T05:25:28Z</time>
      </trkpt>
      <trkpt lat="48.82238" lon="1.98025">
        <ele>138.57</ele>
        <time>2012-04-12T05:25:47Z</time>
      </trkpt>
      <trkpt lat="48.82234" lon="1.98038">
        <ele>139.05</ele>
        <time>2012-04-12T05:25:58Z</time>
      </trkpt>
      <trkpt lat="48.82233" lon="1.98045">
        <ele>139.05</ele>
        <time>2012-04-12T05:26:02Z</time>
      </trkpt>
      <trkpt lat="48.8223" lon="1.98062">
        <ele>139.53</ele>
        <time>2012-04-12T05:26:11Z</time>
      </trkpt>
      <trkpt lat="48.82229" lon="1.9807">
        <ele>139.53</ele>
        <time>2012-04-12T05:26:15Z</time>
      </trkpt>
      <trkpt lat="48.82225" lon="1.98096">
        <ele>137.61</ele>
        <time>2012-04-12T05:26:32Z</time>
      </trkpt>
      <trkpt lat="48.82225" lon="1.98097">
        <ele>137.61</ele>
        <time>2012-04-12T05:26:33Z</time>
      </trkpt>
      <trkpt lat="48.82222" lon="1.98101">
        <ele>137.61</ele>
        <time>2012-04-12T05:26:37Z</time>
      </trkpt>
      <trkpt lat="48.82218" lon="1.98108">
        <ele>138.09</ele>
        <time>2012-04-12T05:26:42Z</time>
      </trkpt>
      <trkpt lat="48.82219" lon="1.98123">
        <ele>138.57</ele>
        <time>2012-04-12T05:26:50Z</time>
      </trkpt>
      <trkpt lat="48.82215" lon="1.98153">
        <ele>138.57</ele>
        <time>2012-04-12T05:27:07Z</time>
      </trkpt>
      <trkpt lat="48.82211" lon="1.98191">
        <ele>139.05</ele>
        <time>2012-04-12T05:27:26Z</time>
      </trkpt>
      <trkpt lat="48.82207" lon="1.98211">
        <ele>138.57</ele>
        <time>2012-04-12T05:27:42Z</time>
      </trkpt>
      <trkpt lat="48.82204" lon="1.98238">
        <ele>139.05</ele>
        <time>2012-04-12T05:27:53Z</time>
      </trkpt>
      <trkpt lat="48.82198" lon="1.98274">
        <ele>141.45</ele>
        <time>2012-04-12T05:28:12Z</time>
      </trkpt>
      <trkpt lat="48.82198" lon="1.98282">
        <ele>141.45</ele>
        <time>2012-04-12T05:28:16Z</time>
      </trkpt>
      <trkpt lat="48.82194" lon="1.98319">
        <ele>138.57</ele>
        <time>2012-04-12T05:28:37Z</time>
      </trkpt>
      <trkpt lat="48.82191" lon="1.98352">
        <ele>133.28</ele>
        <time>2012-04-12T05:28:55Z</time>
      </trkpt>
      <trkpt lat="48.82186" lon="1.98384">
        <ele>130.4</ele>
        <time>2012-04-12T05:29:14Z</time>
      </trkpt>
      <trkpt lat="48.82181" lon="1.98429">
        <ele>131.84</ele>
        <time>2012-04-12T05:29:34Z</time>
      </trkpt>
      <trkpt lat="48.82175" lon="1.98481">
        <ele>131.36</ele>
        <time>2012-04-12T05:29:53Z</time>
      </trkpt>
      <trkpt lat="48.8217" lon="1.98511">
        <ele>131.84</ele>
        <time>2012-04-12T05:30:09Z</time>
      </trkpt>
      <trkpt lat="48.82164" lon="1.98547">
        <ele>131.36</ele>
        <time>2012-04-12T05:30:28Z</time>
      </trkpt>
      <trkpt lat="48.82159" lon="1.98581">
        <ele>130.88</ele>
        <time>2012-04-12T05:30:44Z</time>
      </trkpt>
      <trkpt lat="48.82152" lon="1.98613">
        <ele>132.32</ele>
        <time>2012-04-12T05:31:00Z</time>
      </trkpt>
      <trkpt lat="48.82147" lon="1.98642">
        <ele>134.24</ele>
        <time>2012-04-12T05:31:17Z</time>
      </trkpt>
      <trkpt lat="48.82145" lon="1.98668">
        <ele>133.28</ele>
        <time>2012-04-12T05:31:32Z</time>
      </trkpt>
      <trkpt lat="48.8214" lon="1.98708">
        <ele>134.24</ele>
        <time>2012-04-12T05:31:52Z</time>
      </trkpt>
      <trkpt lat="48.82138" lon="1.98783">
        <ele>138.57</ele>
        <time>2012-04-12T05:32:09Z</time>
      </trkpt>
      <trkpt lat="48.82143" lon="1.98813">
        <ele>134.72</ele>
        <time>2012-04-12T05:32:19Z</time>
      </trkpt>
      <trkpt lat="48.82146" lon="1.9886">
        <ele>128.47</ele>
        <time>2012-04-12T05:32:38Z</time>
      </trkpt>
      <trkpt lat="48.82145" lon="1.98891">
        <ele>125.59</ele>
        <time>2012-04-12T05:32:55Z</time>
      </trkpt>
      <trkpt lat="48.82141" lon="1.98924">
        <ele>120.78</ele>
        <time>2012-04-12T05:33:13Z</time>
      </trkpt>
      <trkpt lat="48.82134" lon="1.98959">
        <ele>113.09</ele>
        <time>2012-04-12T05:33:32Z</time>
      </trkpt>
      <trkpt lat="48.82131" lon="1.98993">
        <ele>110.21</ele>
        <time>2012-04-12T05:33:49Z</time>
      </trkpt>
      <trkpt lat="48.82132" lon="1.99003">
        <ele>110.21</ele>
        <time>2012-04-12T05:33:54Z</time>
      </trkpt>
      <trkpt lat="48.82129" lon="1.99023">
        <ele>109.73</ele>
        <time>2012-04-12T05:34:07Z</time>
      </trkpt>
      <trkpt lat="48.82129" lon="1.99034">
        <ele>108.77</ele>
        <time>2012-04-12T05:34:13Z</time>
      </trkpt>
      <trkpt lat="48.82122" lon="1.99075">
        <ele>105.88</ele>
        <time>2012-04-12T05:34:32Z</time>
      </trkpt>
      <trkpt lat="48.82117" lon="1.99109">
        <ele>106.36</ele>
        <time>2012-04-12T05:34:49Z</time>
      </trkpt>
      <trkpt lat="48.82111" lon="1.99139">
        <ele>105.88</ele>
        <time>2012-04-12T05:35:03Z</time>
      </trkpt>
      <trkpt lat="48.82107" lon="1.99176">
        <ele>105.4</ele>
        <time>2012-04-12T05:35:21Z</time>
      </trkpt>
      <trkpt lat="48.82104" lon="1.99205">
        <ele>103</ele>
        <time>2012-04-12T05:35:37Z</time>
      </trkpt>
      <trkpt lat="48.82099" lon="1.99232">
        <ele>99.63</ele>
        <time>2012-04-12T05:35:52Z</time>
      </trkpt>
      <trkpt lat="48.82094" lon="1.99273">
        <ele>98.67</ele>
        <time>2012-04-12T05:36:12Z</time>
      </trkpt>
      <trkpt lat="48.82091" lon="1.99282">
        <ele>98.67</ele>
        <time>2012-04-12T05:36:17Z</time>
      </trkpt>
      <trkpt lat="48.82089" lon="1.9932">
        <ele>100.6</ele>
        <time>2012-04-12T05:36:35Z</time>
      </trkpt>
      <trkpt lat="48.82084" lon="1.99357">
        <ele>100.11</ele>
        <time>2012-04-12T05:36:53Z</time>
      </trkpt>
      <trkpt lat="48.8208" lon="1.99386">
        <ele>100.11</ele>
        <time>2012-04-12T05:37:07Z</time>
      </trkpt>
      <trkpt lat="48.82074" lon="1.99432">
        <ele>105.4</ele>
        <time>2012-04-12T05:37:26Z</time>
      </trkpt>
      <trkpt lat="48.82071" lon="1.99455">
        <ele>104.44</ele>
        <time>2012-04-12T05:37:40Z</time>
      </trkpt>
      <trkpt lat="48.82067" lon="1.99481">
        <ele>103.96</ele>
        <time>2012-04-12T05:37:52Z</time>
      </trkpt>
      <trkpt lat="48.82068" lon="1.9949">
        <ele>103.96</ele>
        <time>2012-04-12T05:37:56Z</time>
      </trkpt>
      <trkpt lat="48.82061" lon="1.99526">
        <ele>104.44</ele>
        <time>2012-04-12T05:38:12Z</time>
      </trkpt>
      <trkpt lat="48.82057" lon="1.99562">
        <ele>104.92</ele>
        <time>2012-04-12T05:38:30Z</time>
      </trkpt>
      <trkpt lat="48.82048" lon="1.99581">
        <ele>104.92</ele>
        <time>2012-04-12T05:38:41Z</time>
      </trkpt>
      <trkpt lat="48.82027" lon="1.99604">
        <ele>103</ele>
        <time>2012-04-12T05:38:59Z</time>
      </trkpt>
      <trkpt lat="48.82012" lon="1.99614">
        <ele>99.63</ele>
        <time>2012-04-12T05:39:14Z</time>
      </trkpt>
      <trkpt lat="48.82009" lon="1.99617">
        <ele>98.67</ele>
        <time>2012-04-12T05:39:17Z</time>
      </trkpt>
      <trkpt lat="48.81991" lon="1.99644">
        <ele>98.19</ele>
        <time>2012-04-12T05:39:34Z</time>
      </trkpt>
      <trkpt lat="48.81976" lon="1.99661">
        <ele>99.15</ele>
        <time>2012-04-12T05:39:47Z</time>
      </trkpt>
      <trkpt lat="48.8197" lon="1.99668">
        <ele>98.67</ele>
        <time>2012-04-12T05:39:52Z</time>
      </trkpt>
      <trkpt lat="48.81951" lon="1.99693">
        <ele>99.63</ele>
        <time>2012-04-12T05:40:11Z</time>
      </trkpt>
      <trkpt lat="48.81934" lon="1.99714">
        <ele>101.08</ele>
        <time>2012-04-12T05:40:29Z</time>
      </trkpt>
      <trkpt lat="48.81932" lon="1.99715">
        <ele>101.56</ele>
        <time>2012-04-12T05:40:30Z</time>
      </trkpt>
      <trkpt lat="48.8192" lon="1.99735">
        <ele>101.08</ele>
        <time>2012-04-12T05:40:45Z</time>
      </trkpt>
      <trkpt lat="48.81909" lon="1.99765">
        <ele>100.6</ele>
        <time>2012-04-12T05:40:58Z</time>
      </trkpt>
      <trkpt lat="48.81901" lon="1.99797">
        <ele>97.23</ele>
        <time>2012-04-12T05:41:15Z</time>
      </trkpt>
      <trkpt lat="48.8189" lon="1.99831">
        <ele>96.27</ele>
        <time>2012-04-12T05:41:34Z</time>
      </trkpt>
      <trkpt lat="48.81879" lon="1.99861">
        <ele>99.15</ele>
        <time>2012-04-12T05:41:50Z</time>
      </trkpt>
      <trkpt lat="48.81873" lon="1.99886">
        <ele>98.67</ele>
        <time>2012-04-12T05:42:05Z</time>
      </trkpt>
      <trkpt lat="48.81872" lon="1.99895">
        <ele>98.67</ele>
        <time>2012-04-12T05:42:10Z</time>
      </trkpt>
      <trkpt lat="48.81864" lon="1.9993">
        <ele>100.11</ele>
        <time>2012-04-12T05:42:27Z</time>
      </trkpt>
      <trkpt lat="48.81854" lon="1.99974">
        <ele>103</ele>
        <time>2012-04-12T05:42:47Z</time>
      </trkpt>
      <trkpt lat="48.81856" lon="1.99996">
        <ele>104.44</ele>
        <time>2012-04-12T05:42:58Z</time>
      </trkpt>
      <trkpt lat="48.81862" lon="2.0001">
        <ele>104.92</ele>
        <time>2012-04-12T05:43:07Z</time>
      </trkpt>
      <trkpt lat="48.81875" lon="2.0004">
        <ele>103.96</ele>
        <time>2012-04-12T05:43:26Z</time>
      </trkpt>
      <trkpt lat="48.81876" lon="2.00042">
        <ele>103.48</ele>
        <time>2012-04-12T05:43:27Z</time>
      </trkpt>
      <trkpt lat="48.81878" lon="2.00052">
        <ele>103</ele>
        <time>2012-04-12T05:43:32Z</time>
      </trkpt>
      <trkpt lat="48.8188" lon="2.00061">
        <ele>102.52</ele>
        <time>2012-04-12T05:43:36Z</time>
      </trkpt>
      <trkpt lat="48.81883" lon="2.00072">
        <ele>102.04</ele>
        <time>2012-04-12T05:43:42Z</time>
      </trkpt>
      <trkpt lat="48.81889" lon="2.00086">
        <ele>102.52</ele>
        <time>2012-04-12T05:43:50Z</time>
      </trkpt>
      <trkpt lat="48.81903" lon="2.00121">
        <ele>101.08</ele>
        <time>2012-04-12T05:44:10Z</time>
      </trkpt>
      <trkpt lat="48.8192" lon="2.00152">
        <ele>103.48</ele>
        <time>2012-04-12T05:44:28Z</time>
      </trkpt>
      <trkpt lat="48.81927" lon="2.00184">
        <ele>106.36</ele>
        <time>2012-04-12T05:44:43Z</time>
      </trkpt>
      <trkpt lat="48.81933" lon="2.00219">
        <ele>106.84</ele>
        <time>2012-04-12T05:45:00Z</time>
      </trkpt>
      <trkpt lat="48.81929" lon="2.00246">
        <ele>107.81</ele>
        <time>2012-04-12T05:45:15Z</time>
      </trkpt>
      <trkpt lat="48.81931" lon="2.00259">
        <ele>108.29</ele>
        <time>2012-04-12T05:45:21Z</time>
      </trkpt>
      <trkpt lat="48.81937" lon="2.00297">
        <ele>108.77</ele>
        <time>2012-04-12T05:45:39Z</time>
      </trkpt>
      <trkpt lat="48.81943" lon="2.00322">
        <ele>106.84</ele>
        <time>2012-04-12T05:45:53Z</time>
      </trkpt>
      <trkpt lat="48.81959" lon="2.00358">
        <ele>107.81</ele>
        <time>2012-04-12T05:46:12Z</time>
      </trkpt>
      <trkpt lat="48.81961" lon="2.00386">
        <ele>110.69</ele>
        <time>2012-04-12T05:46:27Z</time>
      </trkpt>
      <trkpt lat="48.81964" lon="2.00393">
        <ele>111.17</ele>
        <time>2012-04-12T05:46:31Z</time>
      </trkpt>
      <trkpt lat="48.81969" lon="2.00418">
        <ele>111.65</ele>
        <time>2012-04-12T05:46:45Z</time>
      </trkpt>
      <trkpt lat="48.81957" lon="2.00451">
        <ele>109.25</ele>
        <time>2012-04-12T05:47:02Z</time>
      </trkpt>
      <trkpt lat="48.81944" lon="2.00489">
        <ele>109.25</ele>
        <time>2012-04-12T05:47:23Z</time>
      </trkpt>
      <trkpt lat="48.8193" lon="2.00525">
        <ele>109.25</ele>
        <time>2012-04-12T05:47:43Z</time>
      </trkpt>
      <trkpt lat="48.81919" lon="2.00558">
        <ele>111.17</ele>
        <time>2012-04-12T05:48:01Z</time>
      </trkpt>
      <trkpt lat="48.81907" lon="2.00592">
        <ele>111.65</ele>
        <time>2012-04-12T05:48:19Z</time>
      </trkpt>
      <trkpt lat="48.81897" lon="2.00621">
        <ele>112.13</ele>
        <time>2012-04-12T05:48:36Z</time>
      </trkpt>
      <trkpt lat="48.81888" lon="2.00648">
        <ele>112.61</ele>
        <time>2012-04-12T05:48:52Z</time>
      </trkpt>
      <trkpt lat="48.81881" lon="2.00676">
        <ele>112.61</ele>
        <time>2012-04-12T05:49:07Z</time>
      </trkpt>
      <trkpt lat="48.81885" lon="2.00712">
        <ele>111.65</ele>
        <time>2012-04-12T05:49:26Z</time>
      </trkpt>
      <trkpt lat="48.8189" lon="2.00744">
        <ele>111.17</ele>
        <time>2012-04-12T05:49:43Z</time>
      </trkpt>
      <trkpt lat="48.81894" lon="2.00777">
        <ele>111.17</ele>
        <time>2012-04-12T05:50:03Z</time>
      </trkpt>
      <trkpt lat="48.81897" lon="2.00789">
        <ele>110.21</ele>
        <time>2012-04-12T05:50:16Z</time>
      </trkpt>
      <trkpt lat="48.81903" lon="2.00828">
        <ele>110.69</ele>
        <time>2012-04-12T05:50:36Z</time>
      </trkpt>
      <trkpt lat="48.81911" lon="2.00866">
        <ele>112.61</ele>
        <time>2012-04-12T05:50:56Z</time>
      </trkpt>
      <trkpt lat="48.81916" lon="2.00903">
        <ele>112.13</ele>
        <time>2012-04-12T05:51:15Z</time>
      </trkpt>
      <trkpt lat="48.81922" lon="2.00941">
        <ele>111.17</ele>
        <time>2012-04-12T05:51:34Z</time>
      </trkpt>
      <trkpt lat="48.81929" lon="2.00988">
        <ele>112.61</ele>
        <time>2012-04-12T05:51:59Z</time>
      </trkpt>
      <trkpt lat="48.81934" lon="2.01017">
        <ele>111.17</ele>
        <time>2012-04-12T05:52:16Z</time>
      </trkpt>
      <trkpt lat="48.8194" lon="2.0105">
        <ele>108.29</ele>
        <time>2012-04-12T05:52:34Z</time>
      </trkpt>
      <trkpt lat="48.81945" lon="2.0108">
        <ele>109.73</ele>
        <time>2012-04-12T05:52:50Z</time>
      </trkpt>
      <trkpt lat="48.8195" lon="2.01115">
        <ele>111.17</ele>
        <time>2012-04-12T05:53:08Z</time>
      </trkpt>
      <trkpt lat="48.81954" lon="2.01146">
        <ele>110.21</ele>
        <time>2012-04-12T05:53:25Z</time>
      </trkpt>
      <trkpt lat="48.81957" lon="2.01182">
        <ele>108.77</ele>
        <time>2012-04-12T05:53:43Z</time>
      </trkpt>
      <trkpt lat="48.81968" lon="2.01211">
        <ele>109.25</ele>
        <time>2012-04-12T05:53:59Z</time>
      </trkpt>
      <trkpt lat="48.81974" lon="2.01248">
        <ele>107.81</ele>
        <time>2012-04-12T05:54:17Z</time>
      </trkpt>
      <trkpt lat="48.81977" lon="2.01277">
        <ele>106.84</ele>
        <time>2012-04-12T05:54:33Z</time>
      </trkpt>
      <trkpt lat="48.81983" lon="2.01298">
        <ele>104.92</ele>
        <time>2012-04-12T05:54:48Z</time>
      </trkpt>
      <trkpt lat="48.81987" lon="2.01304">
        <ele>105.4</ele>
        <time>2012-04-12T05:54:52Z</time>
      </trkpt>
      <trkpt lat="48.81994" lon="2.0134">
        <ele>109.25</ele>
        <time>2012-04-12T05:55:09Z</time>
      </trkpt>
      <trkpt lat="48.81999" lon="2.01363">
        <ele>108.29</ele>
        <time>2012-04-12T05:55:23Z</time>
      </trkpt>
      <trkpt lat="48.82001" lon="2.01382">
        <ele>106.84</ele>
        <time>2012-04-12T05:55:33Z</time>
      </trkpt>
      <trkpt lat="48.82003" lon="2.01387">
        <ele>107.32</ele>
        <time>2012-04-12T05:55:35Z</time>
      </trkpt>
      <trkpt lat="48.82006" lon="2.01417">
        <ele>110.69</ele>
        <time>2012-04-12T05:55:51Z</time>
      </trkpt>
      <trkpt lat="48.82009" lon="2.01444">
        <ele>112.61</ele>
        <time>2012-04-12T05:56:06Z</time>
      </trkpt>
      <trkpt lat="48.82015" lon="2.01477">
        <ele>113.57</ele>
        <time>2012-04-12T05:56:22Z</time>
      </trkpt>
      <trkpt lat="48.82021" lon="2.01517">
        <ele>114.05</ele>
        <time>2012-04-12T05:56:42Z</time>
      </trkpt>
      <trkpt lat="48.82027" lon="2.01552">
        <ele>114.05</ele>
        <time>2012-04-12T05:57:00Z</time>
      </trkpt>
      <trkpt lat="48.82028" lon="2.01589">
        <ele>114.53</ele>
        <time>2012-04-12T05:57:19Z</time>
      </trkpt>
      <trkpt lat="48.82019" lon="2.0162">
        <ele>115.01</ele>
        <time>2012-04-12T05:57:36Z</time>
      </trkpt>
      <trkpt lat="48.8201" lon="2.01651">
        <ele>115.5</ele>
        <time>2012-04-12T05:57:53Z</time>
      </trkpt>
      <trkpt lat="48.81999" lon="2.01692">
        <ele>115.01</ele>
        <time>2012-04-12T05:58:15Z</time>
      </trkpt>
      <trkpt lat="48.81988" lon="2.01725">
        <ele>115.5</ele>
        <time>2012-04-12T05:58:33Z</time>
      </trkpt>
      <trkpt lat="48.81986" lon="2.01733">
        <ele>115.01</ele>
        <time>2012-04-12T05:58:37Z</time>
      </trkpt>
      <trkpt lat="48.81978" lon="2.01765">
        <ele>114.05</ele>
        <time>2012-04-12T05:58:54Z</time>
      </trkpt>
      <trkpt lat="48.81968" lon="2.01798">
        <ele>113.09</ele>
        <time>2012-04-12T05:59:12Z</time>
      </trkpt>
      <trkpt lat="48.81959" lon="2.01829">
        <ele>112.61</ele>
        <time>2012-04-12T05:59:29Z</time>
      </trkpt>
      <trkpt lat="48.8195" lon="2.01863">
        <ele>111.65</ele>
        <time>2012-04-12T05:59:47Z</time>
      </trkpt>
      <trkpt lat="48.81941" lon="2.01889">
        <ele>112.13</ele>
        <time>2012-04-12T06:00:02Z</time>
      </trkpt>
      <trkpt lat="48.81925" lon="2.01923">
        <ele>112.61</ele>
        <time>2012-04-12T06:00:22Z</time>
      </trkpt>
      <trkpt lat="48.81907" lon="2.01952">
        <ele>112.61</ele>
        <time>2012-04-12T06:00:42Z</time>
      </trkpt>
      <trkpt lat="48.81891" lon="2.0198">
        <ele>113.09</ele>
        <time>2012-04-12T06:01:00Z</time>
      </trkpt>
      <trkpt lat="48.81875" lon="2.02008">
        <ele>112.61</ele>
        <time>2012-04-12T06:01:18Z</time>
      </trkpt>
      <trkpt lat="48.81862" lon="2.02035">
        <ele>112.13</ele>
        <time>2012-04-12T06:01:34Z</time>
      </trkpt>
      <trkpt lat="48.81857" lon="2.0207">
        <ele>111.17</ele>
        <time>2012-04-12T06:01:52Z</time>
      </trkpt>
      <trkpt lat="48.81859" lon="2.02101">
        <ele>111.17</ele>
        <time>2012-04-12T06:02:08Z</time>
      </trkpt>
      <trkpt lat="48.81863" lon="2.02129">
        <ele>111.17</ele>
        <time>2012-04-12T06:02:24Z</time>
      </trkpt>
      <trkpt lat="48.81858" lon="2.02154">
        <ele>111.17</ele>
        <time>2012-04-12T06:02:40Z</time>
      </trkpt>
      <trkpt lat="48.81857" lon="2.02157">
        <ele>111.65</ele>
        <time>2012-04-12T06:02:44Z</time>
      </trkpt>
      <trkpt lat="48.8186" lon="2.02184">
        <ele>113.57</ele>
        <time>2012-04-12T06:02:59Z</time>
      </trkpt>
      <trkpt lat="48.8186" lon="2.02191">
        <ele>114.05</ele>
        <time>2012-04-12T06:03:16Z</time>
      </trkpt>
      <trkpt lat="48.8186" lon="2.02191">
        <ele>114.05</ele>
        <time>2012-04-12T06:03:33Z</time>
      </trkpt>
      <trkpt lat="48.81875" lon="2.02201">
        <ele>113.09</ele>
        <time>2012-04-12T06:03:48Z</time>
      </trkpt>
      <trkpt lat="48.81881" lon="2.02206">
        <ele>112.13</ele>
        <time>2012-04-12T06:03:53Z</time>
      </trkpt>
      <trkpt lat="48.819" lon="2.02231">
        <ele>112.13</ele>
        <time>2012-04-12T06:04:12Z</time>
      </trkpt>
      <trkpt lat="48.81917" lon="2.02254">
        <ele>111.17</ele>
        <time>2012-04-12T06:04:30Z</time>
      </trkpt>
      <trkpt lat="48.81933" lon="2.02277">
        <ele>111.65</ele>
        <time>2012-04-12T06:04:47Z</time>
      </trkpt>
      <trkpt lat="48.81949" lon="2.02299">
        <ele>112.61</ele>
        <time>2012-04-12T06:05:04Z</time>
      </trkpt>
      <trkpt lat="48.81968" lon="2.02325">
        <ele>112.61</ele>
        <time>2012-04-12T06:05:23Z</time>
      </trkpt>
      <trkpt lat="48.81985" lon="2.02348">
        <ele>111.17</ele>
        <time>2012-04-12T06:05:41Z</time>
      </trkpt>
      <trkpt lat="48.82005" lon="2.02373">
        <ele>111.65</ele>
        <time>2012-04-12T06:06:00Z</time>
      </trkpt>
      <trkpt lat="48.82023" lon="2.02397">
        <ele>111.65</ele>
        <time>2012-04-12T06:06:18Z</time>
      </trkpt>
      <trkpt lat="48.82042" lon="2.02422">
        <ele>112.61</ele>
        <time>2012-04-12T06:06:37Z</time>
      </trkpt>
      <trkpt lat="48.82059" lon="2.02444">
        <ele>113.09</ele>
        <time>2012-04-12T06:06:54Z</time>
      </trkpt>
      <trkpt lat="48.82081" lon="2.02472">
        <ele>113.09</ele>
        <time>2012-04-12T06:07:15Z</time>
      </trkpt>
      <trkpt lat="48.82099" lon="2.02497">
        <ele>112.61</ele>
        <time>2012-04-12T06:07:34Z</time>
      </trkpt>
      <trkpt lat="48.82118" lon="2.02524">
        <ele>113.09</ele>
        <time>2012-04-12T06:07:54Z</time>
      </trkpt>
      <trkpt lat="48.82131" lon="2.02546">
        <ele>114.05</ele>
        <time>2012-04-12T06:08:10Z</time>
      </trkpt>
      <trkpt lat="48.82131" lon="2.02547">
        <ele>114.05</ele>
        <time>2012-04-12T06:08:20Z</time>
      </trkpt>
      <trkpt lat="48.8213" lon="2.02553">
        <ele>114.05</ele>
        <time>2012-04-12T06:08:24Z</time>
      </trkpt>
      <trkpt lat="48.82126" lon="2.02563">
        <ele>114.05</ele>
        <time>2012-04-12T06:08:30Z</time>
      </trkpt>
      <trkpt lat="48.82126" lon="2.02582">
        <ele>114.53</ele>
        <time>2012-04-12T06:08:44Z</time>
      </trkpt>
      <trkpt lat="48.82125" lon="2.02617">
        <ele>114.05</ele>
        <time>2012-04-12T06:09:04Z</time>
      </trkpt>
      <trkpt lat="48.82124" lon="2.02657">
        <ele>114.05</ele>
        <time>2012-04-12T06:09:26Z</time>
      </trkpt>
      <trkpt lat="48.82124" lon="2.02693">
        <ele>114.05</ele>
        <time>2012-04-12T06:09:44Z</time>
      </trkpt>
      <trkpt lat="48.82124" lon="2.02742">
        <ele>114.05</ele>
        <time>2012-04-12T06:10:08Z</time>
      </trkpt>
      <trkpt lat="48.82124" lon="2.02786">
        <ele>113.57</ele>
        <time>2012-04-12T06:10:30Z</time>
      </trkpt>
      <trkpt lat="48.82122" lon="2.02829">
        <ele>114.53</ele>
        <time>2012-04-12T06:10:51Z</time>
      </trkpt>
      <trkpt lat="48.82123" lon="2.02869">
        <ele>113.57</ele>
        <time>2012-04-12T06:11:11Z</time>
      </trkpt>
      <trkpt lat="48.82123" lon="2.02909">
        <ele>114.05</ele>
        <time>2012-04-12T06:11:31Z</time>
      </trkpt>
      <trkpt lat="48.82123" lon="2.02944">
        <ele>113.09</ele>
        <time>2012-04-12T06:11:48Z</time>
      </trkpt>
      <trkpt lat="48.82122" lon="2.0298">
        <ele>113.09</ele>
        <time>2012-04-12T06:12:06Z</time>
      </trkpt>
      <trkpt lat="48.82122" lon="2.03024">
        <ele>113.57</ele>
        <time>2012-04-12T06:12:27Z</time>
      </trkpt>
      <trkpt lat="48.82122" lon="2.03062">
        <ele>114.05</ele>
        <time>2012-04-12T06:12:46Z</time>
      </trkpt>
      <trkpt lat="48.8212" lon="2.03099">
        <ele>114.05</ele>
        <time>2012-04-12T06:13:04Z</time>
      </trkpt>
      <trkpt lat="48.82119" lon="2.03112">
        <ele>115.01</ele>
        <time>2012-04-12T06:13:19Z</time>
      </trkpt>
      <trkpt lat="48.82119" lon="2.03112">
        <ele>114.53</ele>
        <time>2012-04-12T06:13:52Z</time>
      </trkpt>
      <trkpt lat="48.8212" lon="2.0313">
        <ele>115.01</ele>
        <time>2012-04-12T06:14:11Z</time>
      </trkpt>
      <trkpt lat="48.8212" lon="2.03171">
        <ele>114.05</ele>
        <time>2012-04-12T06:14:31Z</time>
      </trkpt>
      <trkpt lat="48.82119" lon="2.03202">
        <ele>113.09</ele>
        <time>2012-04-12T06:14:47Z</time>
      </trkpt>
      <trkpt lat="48.82118" lon="2.03238">
        <ele>112.13</ele>
        <time>2012-04-12T06:15:05Z</time>
      </trkpt>
      <trkpt lat="48.82107" lon="2.03273">
        <ele>112.61</ele>
        <time>2012-04-12T06:15:23Z</time>
      </trkpt>
      <trkpt lat="48.82093" lon="2.03305">
        <ele>113.57</ele>
        <time>2012-04-12T06:15:42Z</time>
      </trkpt>
      <trkpt lat="48.82079" lon="2.03336">
        <ele>113.09</ele>
        <time>2012-04-12T06:16:01Z</time>
      </trkpt>
      <trkpt lat="48.82065" lon="2.03365">
        <ele>112.61</ele>
        <time>2012-04-12T06:16:19Z</time>
      </trkpt>
      <trkpt lat="48.82052" lon="2.03392">
        <ele>112.61</ele>
        <time>2012-04-12T06:16:36Z</time>
      </trkpt>
      <trkpt lat="48.82038" lon="2.03422">
        <ele>112.61</ele>
        <time>2012-04-12T06:16:54Z</time>
      </trkpt>
      <trkpt lat="48.82022" lon="2.03456">
        <ele>114.05</ele>
        <time>2012-04-12T06:17:14Z</time>
      </trkpt>
      <trkpt lat="48.82008" lon="2.03486">
        <ele>114.53</ele>
        <time>2012-04-12T06:17:32Z</time>
      </trkpt>
      <trkpt lat="48.81993" lon="2.03516">
        <ele>114.53</ele>
        <time>2012-04-12T06:17:51Z</time>
      </trkpt>
      <trkpt lat="48.81989" lon="2.03522">
        <ele>114.53</ele>
        <time>2012-04-12T06:18:06Z</time>
      </trkpt>
      <trkpt lat="48.81984" lon="2.03536">
        <ele>114.53</ele>
        <time>2012-04-12T06:18:32Z</time>
      </trkpt>
      <trkpt lat="48.81971" lon="2.03562">
        <ele>114.53</ele>
        <time>2012-04-12T06:18:48Z</time>
      </trkpt>
      <trkpt lat="48.81957" lon="2.03586">
        <ele>112.61</ele>
        <time>2012-04-12T06:19:04Z</time>
      </trkpt>
      <trkpt lat="48.81938" lon="2.03602">
        <ele>112.13</ele>
        <time>2012-04-12T06:19:20Z</time>
      </trkpt>
      <trkpt lat="48.81917" lon="2.03619">
        <ele>111.65</ele>
        <time>2012-04-12T06:19:38Z</time>
      </trkpt>
      <trkpt lat="48.81895" lon="2.03638">
        <ele>111.17</ele>
        <time>2012-04-12T06:19:56Z</time>
      </trkpt>
      <trkpt lat="48.81873" lon="2.03659">
        <ele>111.65</ele>
        <time>2012-04-12T06:20:15Z</time>
      </trkpt>
      <trkpt lat="48.81852" lon="2.03676">
        <ele>111.17</ele>
        <time>2012-04-12T06:20:33Z</time>
      </trkpt>
      <trkpt lat="48.81832" lon="2.03694">
        <ele>111.65</ele>
        <time>2012-04-12T06:20:51Z</time>
      </trkpt>
      <trkpt lat="48.81811" lon="2.03712">
        <ele>111.65</ele>
        <time>2012-04-12T06:21:10Z</time>
      </trkpt>
      <trkpt lat="48.8179" lon="2.03731">
        <ele>112.13</ele>
        <time>2012-04-12T06:21:28Z</time>
      </trkpt>
      <trkpt lat="48.81772" lon="2.03747">
        <ele>112.13</ele>
        <time>2012-04-12T06:21:44Z</time>
      </trkpt>
      <trkpt lat="48.81749" lon="2.03767">
        <ele>113.09</ele>
        <time>2012-04-12T06:22:03Z</time>
      </trkpt>
      <trkpt lat="48.81728" lon="2.03786">
        <ele>112.61</ele>
        <time>2012-04-12T06:22:21Z</time>
      </trkpt>
      <trkpt lat="48.81707" lon="2.03805">
        <ele>113.57</ele>
        <time>2012-04-12T06:22:39Z</time>
      </trkpt>
      <trkpt lat="48.81696" lon="2.03819">
        <ele>112.61</ele>
        <time>2012-04-12T06:22:53Z</time>
      </trkpt>
      <trkpt lat="48.81695" lon="2.0382">
        <ele>112.13</ele>
        <time>2012-04-12T06:22:54Z</time>
      </trkpt>
      <trkpt lat="48.81704" lon="2.03859">
        <ele>111.17</ele>
        <time>2012-04-12T06:23:16Z</time>
      </trkpt>
      <trkpt lat="48.8172" lon="2.0389">
        <ele>110.69</ele>
        <time>2012-04-12T06:23:36Z</time>
      </trkpt>
      <trkpt lat="48.81724" lon="2.03895">
        <ele>111.17</ele>
        <time>2012-04-12T06:23:40Z</time>
      </trkpt>
      <trkpt lat="48.81735" lon="2.03917">
        <ele>111.17</ele>
        <time>2012-04-12T06:23:54Z</time>
      </trkpt>
      <trkpt lat="48.81741" lon="2.03927">
        <ele>111.17</ele>
        <time>2012-04-12T06:24:00Z</time>
      </trkpt>
      <trkpt lat="48.81741" lon="2.03932">
        <ele>112.13</ele>
        <time>2012-04-12T06:24:04Z</time>
      </trkpt>
      <trkpt lat="48.81742" lon="2.0394">
        <ele>106.36</ele>
        <time>2012-04-12T06:24:10Z</time>
      </trkpt>
      <trkpt lat="48.81766" lon="2.03973">
        <ele>104.92</ele>
        <time>2012-04-12T06:24:31Z</time>
      </trkpt>
      <trkpt lat="48.81782" lon="2.03997">
        <ele>106.84</ele>
        <time>2012-04-12T06:24:48Z</time>
      </trkpt>
      <trkpt lat="48.81797" lon="2.04025">
        <ele>107.81</ele>
        <time>2012-04-12T06:25:07Z</time>
      </trkpt>
      <trkpt lat="48.81813" lon="2.04052">
        <ele>108.29</ele>
        <time>2012-04-12T06:25:25Z</time>
      </trkpt>
      <trkpt lat="48.81827" lon="2.04079">
        <ele>108.77</ele>
        <time>2012-04-12T06:25:43Z</time>
      </trkpt>
      <trkpt lat="48.81847" lon="2.04107">
        <ele>110.21</ele>
        <time>2012-04-12T06:26:03Z</time>
      </trkpt>
      <trkpt lat="48.81849" lon="2.04108">
        <ele>110.21</ele>
        <time>2012-04-12T06:26:07Z</time>
      </trkpt>
      <trkpt lat="48.81853" lon="2.04106">
        <ele>110.21</ele>
        <time>2012-04-12T06:26:12Z</time>
      </trkpt>
      <trkpt lat="48.81856" lon="2.04101">
        <ele>109.73</ele>
        <time>2012-04-12T06:26:16Z</time>
      </trkpt>
      <trkpt lat="48.81878" lon="2.04086">
        <ele>107.81</ele>
        <time>2012-04-12T06:26:35Z</time>
      </trkpt>
      <trkpt lat="48.81898" lon="2.04075">
        <ele>104.92</ele>
        <time>2012-04-12T06:26:52Z</time>
      </trkpt>
      <trkpt lat="48.81914" lon="2.04069">
        <ele>103.48</ele>
        <time>2012-04-12T06:27:06Z</time>
      </trkpt>
      <trkpt lat="48.81926" lon="2.04061">
        <ele>104.92</ele>
        <time>2012-04-12T06:27:20Z</time>
      </trkpt>
      <trkpt lat="48.81926" lon="2.04057">
        <ele>105.88</ele>
        <time>2012-04-12T06:27:34Z</time>
      </trkpt>
      <trkpt lat="48.81926" lon="2.04057">
        <ele>105.88</ele>
        <time>2012-04-12T06:27:54Z</time>
      </trkpt>
      <trkpt lat="48.81926" lon="2.04057">
        <ele>105.88</ele>
        <time>2012-04-12T06:28:16Z</time>
      </trkpt>
      <trkpt lat="48.81926" lon="2.04057">
        <ele>105.88</ele>
        <time>2012-04-12T06:28:41Z</time>
      </trkpt>
      <trkpt lat="48.81926" lon="2.04056">
        <ele>106.36</ele>
        <time>2012-04-12T06:29:02Z</time>
      </trkpt>
      <trkpt lat="48.81926" lon="2.04056">
        <ele>106.36</ele>
        <time>2012-04-12T06:29:28Z</time>
      </trkpt>
      <trkpt lat="48.81926" lon="2.04057">
        <ele>108.77</ele>
        <time>2012-04-12T06:29:45Z</time>
      </trkpt>
      <trkpt lat="48.81926" lon="2.04057">
        <ele>109.25</ele>
        <time>2012-04-12T06:30:00Z</time>
      </trkpt>
      <trkpt lat="48.81925" lon="2.04051">
        <ele>109.73</ele>
        <time>2012-04-12T06:30:19Z</time>
      </trkpt>
      <trkpt lat="48.81926" lon="2.0405">
        <ele>110.21</ele>
        <time>2012-04-12T06:30:23Z</time>
      </trkpt>
      <trkpt lat="48.81924" lon="2.04054">
        <ele>110.21</ele>
        <time>2012-04-12T06:30:26Z</time>
      </trkpt>
      <trkpt lat="48.81904" lon="2.0407">
        <ele>111.17</ele>
        <time>2012-04-12T06:30:43Z</time>
      </trkpt>
      <trkpt lat="48.81899" lon="2.04075">
        <ele>110.69</ele>
        <time>2012-04-12T06:30:48Z</time>
      </trkpt>
      <trkpt lat="48.81896" lon="2.04082">
        <ele>109.73</ele>
        <time>2012-04-12T06:31:00Z</time>
      </trkpt>
      <trkpt lat="48.81896" lon="2.04084">
        <ele>110.21</ele>
        <time>2012-04-12T06:31:13Z</time>
      </trkpt>
      <trkpt lat="48.81895" lon="2.04087">
        <ele>110.21</ele>
        <time>2012-04-12T06:31:17Z</time>
      </trkpt>
      <trkpt lat="48.8189" lon="2.04096">
        <ele>111.17</ele>
        <time>2012-04-12T06:31:23Z</time>
      </trkpt>
      <trkpt lat="48.81873" lon="2.04111">
        <ele>112.61</ele>
        <time>2012-04-12T06:31:37Z</time>
      </trkpt>
      <trkpt lat="48.81858" lon="2.0413">
        <ele>114.53</ele>
        <time>2012-04-12T06:31:52Z</time>
      </trkpt>
      <trkpt lat="48.81865" lon="2.04153">
        <ele>113.57</ele>
        <time>2012-04-12T06:32:05Z</time>
      </trkpt>
      <trkpt lat="48.81879" lon="2.04175">
        <ele>111.65</ele>
        <time>2012-04-12T06:32:21Z</time>
      </trkpt>
      <trkpt lat="48.81891" lon="2.04199">
        <ele>110.21</ele>
        <time>2012-04-12T06:32:38Z</time>
      </trkpt>
      <trkpt lat="48.81907" lon="2.04227">
        <ele>107.32</ele>
        <time>2012-04-12T06:32:57Z</time>
      </trkpt>
      <trkpt lat="48.81923" lon="2.04251">
        <ele>108.77</ele>
        <time>2012-04-12T06:33:15Z</time>
      </trkpt>
      <trkpt lat="48.81938" lon="2.04278">
        <ele>110.69</ele>
        <time>2012-04-12T06:33:33Z</time>
      </trkpt>
      <trkpt lat="48.81951" lon="2.04302">
        <ele>111.65</ele>
        <time>2012-04-12T06:33:49Z</time>
      </trkpt>
      <trkpt lat="48.81966" lon="2.04332">
        <ele>112.61</ele>
        <time>2012-04-12T06:34:08Z</time>
      </trkpt>
      <trkpt lat="48.81981" lon="2.04363">
        <ele>113.57</ele>
        <time>2012-04-12T06:34:27Z</time>
      </trkpt>
      <trkpt lat="48.81996" lon="2.0439">
        <ele>114.53</ele>
        <time>2012-04-12T06:34:45Z</time>
      </trkpt>
      <trkpt lat="48.82012" lon="2.04418">
        <ele>114.05</ele>
        <time>2012-04-12T06:35:03Z</time>
      </trkpt>
      <trkpt lat="48.82025" lon="2.04446">
        <ele>113.57</ele>
        <time>2012-04-12T06:35:20Z</time>
      </trkpt>
      <trkpt lat="48.82033" lon="2.04477">
        <ele>114.05</ele>
        <time>2012-04-12T06:35:37Z</time>
      </trkpt>
      <trkpt lat="48.8204" lon="2.04516">
        <ele>114.53</ele>
        <time>2012-04-12T06:35:57Z</time>
      </trkpt>
      <trkpt lat="48.82048" lon="2.04555">
        <ele>114.05</ele>
        <time>2012-04-12T06:36:17Z</time>
      </trkpt>
      <trkpt lat="48.82053" lon="2.04588">
        <ele>114.53</ele>
        <time>2012-04-12T06:36:34Z</time>
      </trkpt>
      <trkpt lat="48.8206" lon="2.0463">
        <ele>114.53</ele>
        <time>2012-04-12T06:36:55Z</time>
      </trkpt>
      <trkpt lat="48.82065" lon="2.04663">
        <ele>115.01</ele>
        <time>2012-04-12T06:37:12Z</time>
      </trkpt>
      <trkpt lat="48.82072" lon="2.04694">
        <ele>115.5</ele>
        <time>2012-04-12T06:37:29Z</time>
      </trkpt>
      <trkpt lat="48.82078" lon="2.04733">
        <ele>115.98</ele>
        <time>2012-04-12T06:37:49Z</time>
      </trkpt>
      <trkpt lat="48.82082" lon="2.04762">
        <ele>115.98</ele>
        <time>2012-04-12T06:38:04Z</time>
      </trkpt>
      <trkpt lat="48.82086" lon="2.04797">
        <ele>115.01</ele>
        <time>2012-04-12T06:38:22Z</time>
      </trkpt>
      <trkpt lat="48.82083" lon="2.04829">
        <ele>115.01</ele>
        <time>2012-04-12T06:38:38Z</time>
      </trkpt>
      <trkpt lat="48.82072" lon="2.04861">
        <ele>115.5</ele>
        <time>2012-04-12T06:38:55Z</time>
      </trkpt>
      <trkpt lat="48.8206" lon="2.04898">
        <ele>115.98</ele>
        <time>2012-04-12T06:39:15Z</time>
      </trkpt>
      <trkpt lat="48.82047" lon="2.04932">
        <ele>115.98</ele>
        <time>2012-04-12T06:39:34Z</time>
      </trkpt>
      <trkpt lat="48.82035" lon="2.04963">
        <ele>116.46</ele>
        <time>2012-04-12T06:39:52Z</time>
      </trkpt>
      <trkpt lat="48.8202" lon="2.04994">
        <ele>116.94</ele>
        <time>2012-04-12T06:40:11Z</time>
      </trkpt>
      <trkpt lat="48.82018" lon="2.04999">
        <ele>117.9</ele>
        <time>2012-04-12T06:40:26Z</time>
      </trkpt>
      <trkpt lat="48.82018" lon="2.04999">
        <ele>117.9</ele>
        <time>2012-04-12T06:40:46Z</time>
      </trkpt>
      <trkpt lat="48.82018" lon="2.04999">
        <ele>117.9</ele>
        <time>2012-04-12T06:40:53Z</time>
      </trkpt>
      <trkpt lat="48.82003" lon="2.05036">
        <ele>116.94</ele>
        <time>2012-04-12T06:41:14Z</time>
      </trkpt>
      <trkpt lat="48.81992" lon="2.05067">
        <ele>117.9</ele>
        <time>2012-04-12T06:41:31Z</time>
      </trkpt>
      <trkpt lat="48.81978" lon="2.05104">
        <ele>118.38</ele>
        <time>2012-04-12T06:41:52Z</time>
      </trkpt>
      <trkpt lat="48.81965" lon="2.05138">
        <ele>118.86</ele>
        <time>2012-04-12T06:42:11Z</time>
      </trkpt>
      <trkpt lat="48.81951" lon="2.05175">
        <ele>118.38</ele>
        <time>2012-04-12T06:42:32Z</time>
      </trkpt>
      <trkpt lat="48.81938" lon="2.05211">
        <ele>117.42</ele>
        <time>2012-04-12T06:42:52Z</time>
      </trkpt>
      <trkpt lat="48.81925" lon="2.05245">
        <ele>116.46</ele>
        <time>2012-04-12T06:43:11Z</time>
      </trkpt>
      <trkpt lat="48.81912" lon="2.05277">
        <ele>116.46</ele>
        <time>2012-04-12T06:43:29Z</time>
      </trkpt>
      <trkpt lat="48.81897" lon="2.05317">
        <ele>115.5</ele>
        <time>2012-04-12T06:43:50Z</time>
      </trkpt>
      <trkpt lat="48.81885" lon="2.0535">
        <ele>115.98</ele>
        <time>2012-04-12T06:44:09Z</time>
      </trkpt>
      <trkpt lat="48.81874" lon="2.05377">
        <ele>116.94</ele>
        <time>2012-04-12T06:44:24Z</time>
      </trkpt>
      <trkpt lat="48.81866" lon="2.05399">
        <ele>116.46</ele>
        <time>2012-04-12T06:44:37Z</time>
      </trkpt>
      <trkpt lat="48.81853" lon="2.05432">
        <ele>115.01</ele>
        <time>2012-04-12T06:44:56Z</time>
      </trkpt>
      <trkpt lat="48.81842" lon="2.05464">
        <ele>115.98</ele>
        <time>2012-04-12T06:45:15Z</time>
      </trkpt>
      <trkpt lat="48.81838" lon="2.05466">
        <ele>116.46</ele>
        <time>2012-04-12T06:45:21Z</time>
      </trkpt>
      <trkpt lat="48.81838" lon="2.05473">
        <ele>115.98</ele>
        <time>2012-04-12T06:45:25Z</time>
      </trkpt>
      <trkpt lat="48.81823" lon="2.05511">
        <ele>114.53</ele>
        <time>2012-04-12T06:45:46Z</time>
      </trkpt>
      <trkpt lat="48.81807" lon="2.05542">
        <ele>113.09</ele>
        <time>2012-04-12T06:46:06Z</time>
      </trkpt>
      <trkpt lat="48.81788" lon="2.0557">
        <ele>113.09</ele>
        <time>2012-04-12T06:46:25Z</time>
      </trkpt>
      <trkpt lat="48.81786" lon="2.05572">
        <ele>113.09</ele>
        <time>2012-04-12T06:46:27Z</time>
      </trkpt>
      <trkpt lat="48.81776" lon="2.056">
        <ele>113.09</ele>
        <time>2012-04-12T06:46:44Z</time>
      </trkpt>
      <trkpt lat="48.81791" lon="2.05625">
        <ele>112.13</ele>
        <time>2012-04-12T06:47:02Z</time>
      </trkpt>
      <trkpt lat="48.81809" lon="2.05655">
        <ele>111.65</ele>
        <time>2012-04-12T06:47:23Z</time>
      </trkpt>
      <trkpt lat="48.81828" lon="2.05683">
        <ele>112.13</ele>
        <time>2012-04-12T06:47:44Z</time>
      </trkpt>
      <trkpt lat="48.81847" lon="2.05714">
        <ele>111.65</ele>
        <time>2012-04-12T06:48:05Z</time>
      </trkpt>
      <trkpt lat="48.81867" lon="2.05746">
        <ele>111.65</ele>
        <time>2012-04-12T06:48:27Z</time>
      </trkpt>
      <trkpt lat="48.81884" lon="2.05771">
        <ele>112.61</ele>
        <time>2012-04-12T06:48:49Z</time>
      </trkpt>
      <trkpt lat="48.81884" lon="2.05771">
        <ele>112.61</ele>
        <time>2012-04-12T06:48:50Z</time>
      </trkpt>
      <trkpt lat="48.81885" lon="2.05773">
        <ele>112.61</ele>
        <time>2012-04-12T06:48:53Z</time>
      </trkpt>
      <trkpt lat="48.81903" lon="2.05803">
        <ele>111.17</ele>
        <time>2012-04-12T06:49:13Z</time>
      </trkpt>
      <trkpt lat="48.81922" lon="2.05833">
        <ele>111.17</ele>
        <time>2012-04-12T06:49:33Z</time>
      </trkpt>
      <trkpt lat="48.81942" lon="2.05864">
        <ele>111.17</ele>
        <time>2012-04-12T06:49:54Z</time>
      </trkpt>
      <trkpt lat="48.81965" lon="2.059">
        <ele>111.17</ele>
        <time>2012-04-12T06:50:29Z</time>
      </trkpt>
      <trkpt lat="48.81984" lon="2.05932">
        <ele>111.17</ele>
        <time>2012-04-12T06:50:51Z</time>
      </trkpt>
      <trkpt lat="48.82001" lon="2.05967">
        <ele>112.61</ele>
        <time>2012-04-12T06:51:12Z</time>
      </trkpt>
      <trkpt lat="48.82015" lon="2.06001">
        <ele>111.65</ele>
        <time>2012-04-12T06:51:20Z</time>
      </trkpt>
      <trkpt lat="48.82025" lon="2.0602">
        <ele>110.69</ele>
        <time>2012-04-12T06:51:31Z</time>
      </trkpt>
      <trkpt lat="48.8202" lon="2.06037">
        <ele>113.57</ele>
        <time>2012-04-12T06:51:45Z</time>
      </trkpt>
      <trkpt lat="48.82014" lon="2.06088">
        <ele>110.69</ele>
        <time>2012-04-12T06:52:13Z</time>
      </trkpt>
      <trkpt lat="48.82005" lon="2.06111">
        <ele>110.21</ele>
        <time>2012-04-12T06:52:27Z</time>
      </trkpt>
      <trkpt lat="48.81998" lon="2.06142">
        <ele>110.69</ele>
        <time>2012-04-12T06:52:43Z</time>
      </trkpt>
      <trkpt lat="48.81989" lon="2.06179">
        <ele>110.69</ele>
        <time>2012-04-12T06:53:02Z</time>
      </trkpt>
      <trkpt lat="48.8198" lon="2.06213">
        <ele>109.25</ele>
        <time>2012-04-12T06:53:19Z</time>
      </trkpt>
      <trkpt lat="48.81969" lon="2.06257">
        <ele>107.32</ele>
        <time>2012-04-12T06:53:41Z</time>
      </trkpt>
      <trkpt lat="48.81959" lon="2.06301">
        <ele>106.36</ele>
        <time>2012-04-12T06:54:03Z</time>
      </trkpt>
      <trkpt lat="48.81952" lon="2.06345">
        <ele>104.92</ele>
        <time>2012-04-12T06:54:25Z</time>
      </trkpt>
      <trkpt lat="48.81944" lon="2.06372">
        <ele>103.96</ele>
        <time>2012-04-12T06:54:41Z</time>
      </trkpt>
      <trkpt lat="48.81942" lon="2.06378">
        <ele>103.48</ele>
        <time>2012-04-12T06:54:45Z</time>
      </trkpt>
      <trkpt lat="48.81938" lon="2.06389">
        <ele>103.48</ele>
        <time>2012-04-12T06:54:51Z</time>
      </trkpt>
      <trkpt lat="48.8193" lon="2.06418">
        <ele>103</ele>
        <time>2012-04-12T06:55:08Z</time>
      </trkpt>
      <trkpt lat="48.81926" lon="2.0644">
        <ele>100.6</ele>
        <time>2012-04-12T06:55:19Z</time>
      </trkpt>
      <trkpt lat="48.81923" lon="2.06466">
        <ele>99.15</ele>
        <time>2012-04-12T06:55:35Z</time>
      </trkpt>
      <trkpt lat="48.81912" lon="2.06509">
        <ele>100.11</ele>
        <time>2012-04-12T06:55:54Z</time>
      </trkpt>
      <trkpt lat="48.81902" lon="2.06533">
        <ele>101.08</ele>
        <time>2012-04-12T06:56:10Z</time>
      </trkpt>
      <trkpt lat="48.81893" lon="2.06563">
        <ele>98.67</ele>
        <time>2012-04-12T06:56:27Z</time>
      </trkpt>
      <trkpt lat="48.8189" lon="2.06574">
        <ele>99.15</ele>
        <time>2012-04-12T06:56:33Z</time>
      </trkpt>
      <trkpt lat="48.81887" lon="2.06579">
        <ele>99.15</ele>
        <time>2012-04-12T06:56:45Z</time>
      </trkpt>
      <trkpt lat="48.81887" lon="2.06587">
        <ele>99.15</ele>
        <time>2012-04-12T06:56:49Z</time>
      </trkpt>
      <trkpt lat="48.8188" lon="2.06611">
        <ele>101.08</ele>
        <time>2012-04-12T06:57:05Z</time>
      </trkpt>
      <trkpt lat="48.81878" lon="2.06613">
        <ele>101.08</ele>
        <time>2012-04-12T06:57:12Z</time>
      </trkpt>
      <trkpt lat="48.81861" lon="2.06641">
        <ele>100.11</ele>
        <time>2012-04-12T06:57:27Z</time>
      </trkpt>
      <trkpt lat="48.81862" lon="2.06692">
        <ele>105.4</ele>
        <time>2012-04-12T06:57:42Z</time>
      </trkpt>
      <trkpt lat="48.81858" lon="2.06694">
        <ele>106.36</ele>
        <time>2012-04-12T06:57:54Z</time>
      </trkpt>
      <trkpt lat="48.81855" lon="2.06718">
        <ele>106.84</ele>
        <time>2012-04-12T06:58:08Z</time>
      </trkpt>
      <trkpt lat="48.81854" lon="2.06725">
        <ele>106.84</ele>
        <time>2012-04-12T06:58:12Z</time>
      </trkpt>
      <trkpt lat="48.81847" lon="2.06751">
        <ele>104.44</ele>
        <time>2012-04-12T06:58:27Z</time>
      </trkpt>
      <trkpt lat="48.81841" lon="2.06774">
        <ele>103.96</ele>
        <time>2012-04-12T06:58:40Z</time>
      </trkpt>
      <trkpt lat="48.81834" lon="2.06801">
        <ele>103.96</ele>
        <time>2012-04-12T06:58:54Z</time>
      </trkpt>
      <trkpt lat="48.81824" lon="2.06825">
        <ele>103.96</ele>
        <time>2012-04-12T06:59:09Z</time>
      </trkpt>
      <trkpt lat="48.81817" lon="2.06839">
        <ele>104.92</ele>
        <time>2012-04-12T06:59:19Z</time>
      </trkpt>
      <trkpt lat="48.81813" lon="2.06851">
        <ele>105.88</ele>
        <time>2012-04-12T06:59:34Z</time>
      </trkpt>
      <trkpt lat="48.81811" lon="2.0686">
        <ele>106.36</ele>
        <time>2012-04-12T06:59:39Z</time>
      </trkpt>
      <trkpt lat="48.81801" lon="2.06895">
        <ele>105.88</ele>
        <time>2012-04-12T06:59:58Z</time>
      </trkpt>
      <trkpt lat="48.81792" lon="2.06925">
        <ele>105.88</ele>
        <time>2012-04-12T07:00:15Z</time>
      </trkpt>
      <trkpt lat="48.81782" lon="2.06961">
        <ele>105.88</ele>
        <time>2012-04-12T07:00:34Z</time>
      </trkpt>
      <trkpt lat="48.81776" lon="2.06986">
        <ele>106.36</ele>
        <time>2012-04-12T07:00:48Z</time>
      </trkpt>
      <trkpt lat="48.81769" lon="2.07015">
        <ele>105.4</ele>
        <time>2012-04-12T07:01:05Z</time>
      </trkpt>
      <trkpt lat="48.81761" lon="2.07046">
        <ele>105.88</ele>
        <time>2012-04-12T07:01:22Z</time>
      </trkpt>
      <trkpt lat="48.81752" lon="2.0708">
        <ele>105.88</ele>
        <time>2012-04-12T07:01:39Z</time>
      </trkpt>
      <trkpt lat="48.81742" lon="2.07118">
        <ele>107.32</ele>
        <time>2012-04-12T07:01:57Z</time>
      </trkpt>
      <trkpt lat="48.81735" lon="2.07148">
        <ele>105.88</ele>
        <time>2012-04-12T07:02:14Z</time>
      </trkpt>
      <trkpt lat="48.81726" lon="2.07178">
        <ele>105.88</ele>
        <time>2012-04-12T07:02:30Z</time>
      </trkpt>
      <trkpt lat="48.81719" lon="2.07205">
        <ele>106.36</ele>
        <time>2012-04-12T07:02:43Z</time>
      </trkpt>
      <trkpt lat="48.81711" lon="2.07237">
        <ele>106.84</ele>
        <time>2012-04-12T07:03:00Z</time>
      </trkpt>
      <trkpt lat="48.81704" lon="2.07263">
        <ele>106.84</ele>
        <time>2012-04-12T07:03:15Z</time>
      </trkpt>
      <trkpt lat="48.81695" lon="2.07296">
        <ele>107.81</ele>
        <time>2012-04-12T07:03:31Z</time>
      </trkpt>
      <trkpt lat="48.81686" lon="2.07328">
        <ele>108.29</ele>
        <time>2012-04-12T07:03:48Z</time>
      </trkpt>
      <trkpt lat="48.81678" lon="2.07359">
        <ele>108.77</ele>
        <time>2012-04-12T07:04:04Z</time>
      </trkpt>
      <trkpt lat="48.81668" lon="2.07395">
        <ele>108.77</ele>
        <time>2012-04-12T07:04:22Z</time>
      </trkpt>
      <trkpt lat="48.8166" lon="2.07423">
        <ele>109.73</ele>
        <time>2012-04-12T07:04:37Z</time>
      </trkpt>
      <trkpt lat="48.81652" lon="2.07456">
        <ele>111.17</ele>
        <time>2012-04-12T07:04:55Z</time>
      </trkpt>
      <trkpt lat="48.81645" lon="2.07488">
        <ele>109.25</ele>
        <time>2012-04-12T07:05:13Z</time>
      </trkpt>
      <trkpt lat="48.81638" lon="2.07514">
        <ele>107.81</ele>
        <time>2012-04-12T07:05:29Z</time>
      </trkpt>
      <trkpt lat="48.81632" lon="2.07539">
        <ele>108.29</ele>
        <time>2012-04-12T07:05:44Z</time>
      </trkpt>
      <trkpt lat="48.81626" lon="2.07572">
        <ele>107.81</ele>
        <time>2012-04-12T07:06:00Z</time>
      </trkpt>
      <trkpt lat="48.81619" lon="2.07596">
        <ele>109.25</ele>
        <time>2012-04-12T07:06:13Z</time>
      </trkpt>
      <trkpt lat="48.81609" lon="2.07628">
        <ele>111.65</ele>
        <time>2012-04-12T07:06:28Z</time>
      </trkpt>
      <trkpt lat="48.81602" lon="2.07658">
        <ele>112.13</ele>
        <time>2012-04-12T07:06:45Z</time>
      </trkpt>
      <trkpt lat="48.81592" lon="2.07685">
        <ele>112.13</ele>
        <time>2012-04-12T07:07:00Z</time>
      </trkpt>
      <trkpt lat="48.81584" lon="2.07707">
        <ele>112.61</ele>
        <time>2012-04-12T07:07:13Z</time>
      </trkpt>
      <trkpt lat="48.81573" lon="2.07747">
        <ele>111.65</ele>
        <time>2012-04-12T07:07:34Z</time>
      </trkpt>
      <trkpt lat="48.81569" lon="2.07765">
        <ele>112.13</ele>
        <time>2012-04-12T07:07:43Z</time>
      </trkpt>
      <trkpt lat="48.81563" lon="2.0779">
        <ele>112.61</ele>
        <time>2012-04-12T07:07:58Z</time>
      </trkpt>
      <trkpt lat="48.81554" lon="2.07814">
        <ele>113.09</ele>
        <time>2012-04-12T07:08:12Z</time>
      </trkpt>
      <trkpt lat="48.81551" lon="2.07827">
        <ele>113.09</ele>
        <time>2012-04-12T07:08:24Z</time>
      </trkpt>
      <trkpt lat="48.81547" lon="2.07835">
        <ele>112.61</ele>
        <time>2012-04-12T07:08:46Z</time>
      </trkpt>
      <trkpt lat="48.81539" lon="2.07856">
        <ele>110.21</ele>
        <time>2012-04-12T07:09:01Z</time>
      </trkpt>
      <trkpt lat="48.81537" lon="2.07862">
        <ele>109.73</ele>
        <time>2012-04-12T07:09:04Z</time>
      </trkpt>
      <trkpt lat="48.81541" lon="2.07878">
        <ele>109.25</ele>
        <time>2012-04-12T07:09:16Z</time>
      </trkpt>
      <trkpt lat="48.81543" lon="2.07891">
        <ele>108.29</ele>
        <time>2012-04-12T07:09:23Z</time>
      </trkpt>
      <trkpt lat="48.81544" lon="2.07908">
        <ele>108.77</ele>
        <time>2012-04-12T07:09:31Z</time>
      </trkpt>
      <trkpt lat="48.81545" lon="2.07915">
        <ele>110.21</ele>
        <time>2012-04-12T07:09:43Z</time>
      </trkpt>
      <trkpt lat="48.81547" lon="2.07915">
        <ele>110.21</ele>
        <time>2012-04-12T07:09:46Z</time>
      </trkpt>
      <trkpt lat="48.81563" lon="2.07916">
        <ele>108.77</ele>
        <time>2012-04-12T07:10:02Z</time>
      </trkpt>
      <trkpt lat="48.81584" lon="2.07927">
        <ele>107.81</ele>
        <time>2012-04-12T07:10:19Z</time>
      </trkpt>
      <trkpt lat="48.81593" lon="2.07938">
        <ele>108.77</ele>
        <time>2012-04-12T07:10:28Z</time>
      </trkpt>
      <trkpt lat="48.81589" lon="2.07967">
        <ele>109.73</ele>
        <time>2012-04-12T07:10:47Z</time>
      </trkpt>
      <trkpt lat="48.81585" lon="2.07984">
        <ele>109.25</ele>
        <time>2012-04-12T07:10:59Z</time>
      </trkpt>
      <trkpt lat="48.81579" lon="2.08012">
        <ele>111.17</ele>
        <time>2012-04-12T07:11:16Z</time>
      </trkpt>
      <trkpt lat="48.81577" lon="2.08019">
        <ele>111.17</ele>
        <time>2012-04-12T07:11:37Z</time>
      </trkpt>
      <trkpt lat="48.8157" lon="2.08053">
        <ele>111.65</ele>
        <time>2012-04-12T07:11:53Z</time>
      </trkpt>
      <trkpt lat="48.81559" lon="2.08093">
        <ele>113.09</ele>
        <time>2012-04-12T07:12:11Z</time>
      </trkpt>
      <trkpt lat="48.81552" lon="2.08125">
        <ele>112.61</ele>
        <time>2012-04-12T07:12:28Z</time>
      </trkpt>
      <trkpt lat="48.81546" lon="2.08156">
        <ele>111.17</ele>
        <time>2012-04-12T07:12:45Z</time>
      </trkpt>
      <trkpt lat="48.81535" lon="2.08199">
        <ele>112.13</ele>
        <time>2012-04-12T07:13:06Z</time>
      </trkpt>
      <trkpt lat="48.81522" lon="2.08238">
        <ele>111.17</ele>
        <time>2012-04-12T07:13:26Z</time>
      </trkpt>
      <trkpt lat="48.81511" lon="2.08278">
        <ele>112.13</ele>
        <time>2012-04-12T07:13:47Z</time>
      </trkpt>
      <trkpt lat="48.81509" lon="2.08281">
        <ele>111.65</ele>
        <time>2012-04-12T07:13:49Z</time>
      </trkpt>
      <trkpt lat="48.81484" lon="2.08296">
        <ele>109.73</ele>
        <time>2012-04-12T07:14:09Z</time>
      </trkpt>
      <trkpt lat="48.81464" lon="2.08307">
        <ele>110.21</ele>
        <time>2012-04-12T07:14:26Z</time>
      </trkpt>
      <trkpt lat="48.81447" lon="2.08326">
        <ele>109.73</ele>
        <time>2012-04-12T07:14:43Z</time>
      </trkpt>
      <trkpt lat="48.81431" lon="2.08355">
        <ele>111.17</ele>
        <time>2012-04-12T07:15:02Z</time>
      </trkpt>
      <trkpt lat="48.81419" lon="2.08382">
        <ele>111.65</ele>
        <time>2012-04-12T07:15:19Z</time>
      </trkpt>
      <trkpt lat="48.81411" lon="2.08412">
        <ele>111.17</ele>
        <time>2012-04-12T07:15:35Z</time>
      </trkpt>
      <trkpt lat="48.81399" lon="2.08439">
        <ele>112.13</ele>
        <time>2012-04-12T07:15:52Z</time>
      </trkpt>
      <trkpt lat="48.81375" lon="2.08459">
        <ele>111.65</ele>
        <time>2012-04-12T07:16:12Z</time>
      </trkpt>
      <trkpt lat="48.81358" lon="2.0849">
        <ele>111.17</ele>
        <time>2012-04-12T07:16:31Z</time>
      </trkpt>
      <trkpt lat="48.81351" lon="2.0852">
        <ele>110.21</ele>
        <time>2012-04-12T07:16:47Z</time>
      </trkpt>
      <trkpt lat="48.8134" lon="2.08559">
        <ele>108.29</ele>
        <time>2012-04-12T07:17:07Z</time>
      </trkpt>
      <trkpt lat="48.81329" lon="2.08599">
        <ele>106.84</ele>
        <time>2012-04-12T07:17:27Z</time>
      </trkpt>
      <trkpt lat="48.8132" lon="2.0864">
        <ele>107.32</ele>
        <time>2012-04-12T07:17:46Z</time>
      </trkpt>
      <trkpt lat="48.8131" lon="2.08677">
        <ele>104.92</ele>
        <time>2012-04-12T07:18:06Z</time>
      </trkpt>
      <trkpt lat="48.81304" lon="2.08693">
        <ele>104.44</ele>
        <time>2012-04-12T07:18:15Z</time>
      </trkpt>
      <trkpt lat="48.81292" lon="2.08704">
        <ele>105.4</ele>
        <time>2012-04-12T07:18:27Z</time>
      </trkpt>
      <trkpt lat="48.81286" lon="2.08709">
        <ele>105.88</ele>
        <time>2012-04-12T07:18:43Z</time>
      </trkpt>
      <trkpt lat="48.81286" lon="2.08709">
        <ele>105.88</ele>
        <time>2012-04-12T07:19:03Z</time>
      </trkpt>
      <trkpt lat="48.81286" lon="2.08709">
        <ele>105.88</ele>
        <time>2012-04-12T07:19:31Z</time>
      </trkpt>
      <trkpt lat="48.81285" lon="2.08709">
        <ele>106.84</ele>
        <time>2012-04-12T07:20:01Z</time>
      </trkpt>
      <trkpt lat="48.81285" lon="2.08709">
        <ele>106.84</ele>
        <time>2012-04-12T07:20:25Z</time>
      </trkpt>
      <trkpt lat="48.81285" lon="2.08709">
        <ele>106.84</ele>
        <time>2012-04-12T07:20:52Z</time>
      </trkpt>
      <trkpt lat="48.81285" lon="2.08709">
        <ele>106.84</ele>
        <time>2012-04-12T07:21:22Z</time>
      </trkpt>
      <trkpt lat="48.81285" lon="2.08709">
        <ele>106.84</ele>
        <time>2012-04-12T07:21:48Z</time>
      </trkpt>
      <trkpt lat="48.81285" lon="2.08709">
        <ele>106.84</ele>
        <time>2012-04-12T07:22:13Z</time>
      </trkpt>
      <trkpt lat="48.81285" lon="2.08709">
        <ele>106.84</ele>
        <time>2012-04-12T07:22:40Z</time>
      </trkpt>
      <trkpt lat="48.81285" lon="2.08709">
        <ele>106.84</ele>
        <time>2012-04-12T07:23:07Z</time>
      </trkpt>
      <trkpt lat="48.81284" lon="2.08719">
        <ele>107.81</ele>
        <time>2012-04-12T07:23:28Z</time>
      </trkpt>
      <trkpt lat="48.81275" lon="2.08746">
        <ele>108.77</ele>
        <time>2012-04-12T07:23:44Z</time>
      </trkpt>
      <trkpt lat="48.81268" lon="2.08769">
        <ele>110.21</ele>
        <time>2012-04-12T07:24:00Z</time>
      </trkpt>
      <trkpt lat="48.81264" lon="2.08795">
        <ele>109.73</ele>
        <time>2012-04-12T07:24:17Z</time>
      </trkpt>
      <trkpt lat="48.81256" lon="2.08825">
        <ele>108.77</ele>
        <time>2012-04-12T07:24:33Z</time>
      </trkpt>
      <trkpt lat="48.81253" lon="2.08844">
        <ele>107.81</ele>
        <time>2012-04-12T07:24:44Z</time>
      </trkpt>
      <trkpt lat="48.81234" lon="2.08865">
        <ele>108.29</ele>
        <time>2012-04-12T07:25:02Z</time>
      </trkpt>
      <trkpt lat="48.81219" lon="2.08885">
        <ele>108.29</ele>
        <time>2012-04-12T07:25:19Z</time>
      </trkpt>
      <trkpt lat="48.8121" lon="2.08916">
        <ele>109.73</ele>
        <time>2012-04-12T07:25:36Z</time>
      </trkpt>
      <trkpt lat="48.81203" lon="2.08948">
        <ele>109.73</ele>
        <time>2012-04-12T07:25:54Z</time>
      </trkpt>
      <trkpt lat="48.81199" lon="2.08962">
        <ele>110.21</ele>
        <time>2012-04-12T07:26:08Z</time>
      </trkpt>
      <trkpt lat="48.81194" lon="2.0898">
        <ele>110.21</ele>
        <time>2012-04-12T07:26:21Z</time>
      </trkpt>
      <trkpt lat="48.8119" lon="2.08995">
        <ele>110.21</ele>
        <time>2012-04-12T07:26:29Z</time>
      </trkpt>
      <trkpt lat="48.81183" lon="2.09016">
        <ele>109.25</ele>
        <time>2012-04-12T07:26:40Z</time>
      </trkpt>
      <trkpt lat="48.81175" lon="2.09049">
        <ele>108.29</ele>
        <time>2012-04-12T07:26:57Z</time>
      </trkpt>
      <trkpt lat="48.81172" lon="2.09056">
        <ele>107.81</ele>
        <time>2012-04-12T07:27:10Z</time>
      </trkpt>
      <trkpt lat="48.81167" lon="2.09085">
        <ele>106.84</ele>
        <time>2012-04-12T07:27:24Z</time>
      </trkpt>
      <trkpt lat="48.81159" lon="2.09114">
        <ele>106.36</ele>
        <time>2012-04-12T07:27:40Z</time>
      </trkpt>
      <trkpt lat="48.81158" lon="2.09116">
        <ele>106.36</ele>
        <time>2012-04-12T07:27:41Z</time>
      </trkpt>
      <trkpt lat="48.81159" lon="2.09121">
        <ele>105.88</ele>
        <time>2012-04-12T07:27:54Z</time>
      </trkpt>
      <trkpt lat="48.81161" lon="2.0913">
        <ele>105.88</ele>
        <time>2012-04-12T07:28:03Z</time>
      </trkpt>
      <trkpt lat="48.81167" lon="2.09161">
        <ele>107.32</ele>
        <time>2012-04-12T07:28:18Z</time>
      </trkpt>
      <trkpt lat="48.81168" lon="2.0919">
        <ele>106.84</ele>
        <time>2012-04-12T07:28:33Z</time>
      </trkpt>
      <trkpt lat="48.81171" lon="2.0922">
        <ele>109.25</ele>
        <time>2012-04-12T07:28:48Z</time>
      </trkpt>
      <trkpt lat="48.81172" lon="2.09237">
        <ele>109.73</ele>
        <time>2012-04-12T07:28:56Z</time>
      </trkpt>
      <trkpt lat="48.81175" lon="2.09262">
        <ele>109.73</ele>
        <time>2012-04-12T07:29:09Z</time>
      </trkpt>
      <trkpt lat="48.8118" lon="2.09285">
        <ele>109.25</ele>
        <time>2012-04-12T07:29:21Z</time>
      </trkpt>
      <trkpt lat="48.81171" lon="2.09314">
        <ele>110.21</ele>
        <time>2012-04-12T07:29:37Z</time>
      </trkpt>
      <trkpt lat="48.81162" lon="2.09347">
        <ele>112.61</ele>
        <time>2012-04-12T07:29:54Z</time>
      </trkpt>
      <trkpt lat="48.81158" lon="2.0936">
        <ele>113.09</ele>
        <time>2012-04-12T07:30:10Z</time>
      </trkpt>
      <trkpt lat="48.81158" lon="2.0936">
        <ele>113.09</ele>
        <time>2012-04-12T07:30:32Z</time>
      </trkpt>
      <trkpt lat="48.81158" lon="2.09361">
        <ele>113.09</ele>
        <time>2012-04-12T07:30:44Z</time>
      </trkpt>
      <trkpt lat="48.81157" lon="2.09371">
        <ele>112.13</ele>
        <time>2012-04-12T07:30:49Z</time>
      </trkpt>
      <trkpt lat="48.81146" lon="2.09408">
        <ele>113.09</ele>
        <time>2012-04-12T07:31:08Z</time>
      </trkpt>
      <trkpt lat="48.81138" lon="2.09435">
        <ele>109.73</ele>
        <time>2012-04-12T07:31:23Z</time>
      </trkpt>
      <trkpt lat="48.81129" lon="2.09467">
        <ele>109.25</ele>
        <time>2012-04-12T07:31:40Z</time>
      </trkpt>
      <trkpt lat="48.81119" lon="2.09509">
        <ele>109.73</ele>
        <time>2012-04-12T07:32:01Z</time>
      </trkpt>
      <trkpt lat="48.81109" lon="2.09543">
        <ele>110.69</ele>
        <time>2012-04-12T07:32:19Z</time>
      </trkpt>
      <trkpt lat="48.81105" lon="2.09564">
        <ele>110.21</ele>
        <time>2012-04-12T07:32:32Z</time>
      </trkpt>
      <trkpt lat="48.81095" lon="2.09602">
        <ele>110.69</ele>
        <time>2012-04-12T07:32:50Z</time>
      </trkpt>
      <trkpt lat="48.81087" lon="2.0963">
        <ele>112.61</ele>
        <time>2012-04-12T07:33:05Z</time>
      </trkpt>
      <trkpt lat="48.81084" lon="2.09641">
        <ele>113.57</ele>
        <time>2012-04-12T07:33:20Z</time>
      </trkpt>
      <trkpt lat="48.81074" lon="2.09678">
        <ele>115.98</ele>
        <time>2012-04-12T07:33:40Z</time>
      </trkpt>
      <trkpt lat="48.81065" lon="2.09716">
        <ele>115.01</ele>
        <time>2012-04-12T07:34:01Z</time>
      </trkpt>
      <trkpt lat="48.81062" lon="2.0973">
        <ele>115.5</ele>
        <time>2012-04-12T07:34:10Z</time>
      </trkpt>
      <trkpt lat="48.81052" lon="2.09766">
        <ele>115.5</ele>
        <time>2012-04-12T07:34:28Z</time>
      </trkpt>
      <trkpt lat="48.8104" lon="2.09805">
        <ele>114.53</ele>
        <time>2012-04-12T07:34:48Z</time>
      </trkpt>
      <trkpt lat="48.81033" lon="2.09829">
        <ele>112.61</ele>
        <time>2012-04-12T07:35:03Z</time>
      </trkpt>
      <trkpt lat="48.81023" lon="2.09867">
        <ele>110.69</ele>
        <time>2012-04-12T07:35:22Z</time>
      </trkpt>
      <trkpt lat="48.81006" lon="2.09861">
        <ele>109.25</ele>
        <time>2012-04-12T07:35:36Z</time>
      </trkpt>
      <trkpt lat="48.81005" lon="2.0986">
        <ele>108.77</ele>
        <time>2012-04-12T07:35:37Z</time>
      </trkpt>
      <trkpt lat="48.81001" lon="2.09857">
        <ele>107.81</ele>
        <time>2012-04-12T07:35:41Z</time>
      </trkpt>
      <trkpt lat="48.80992" lon="2.09879">
        <ele>107.32</ele>
        <time>2012-04-12T07:35:55Z</time>
      </trkpt>
      <trkpt lat="48.8098" lon="2.09892">
        <ele>106.84</ele>
        <time>2012-04-12T07:36:08Z</time>
      </trkpt>
      <trkpt lat="48.8096" lon="2.09901">
        <ele>105.88</ele>
        <time>2012-04-12T07:36:24Z</time>
      </trkpt>
      <trkpt lat="48.80955" lon="2.099">
        <ele>105.88</ele>
        <time>2012-04-12T07:36:28Z</time>
      </trkpt>
      <trkpt lat="48.80944" lon="2.09912">
        <ele>106.36</ele>
        <time>2012-04-12T07:36:42Z</time>
      </trkpt>
      <trkpt lat="48.80947" lon="2.09913">
        <ele>106.36</ele>
        <time>2012-04-12T07:37:00Z</time>
      </trkpt>
      <trkpt lat="48.80947" lon="2.09913">
        <ele>106.36</ele>
        <time>2012-04-12T07:37:33Z</time>
      </trkpt>
      <trkpt lat="48.80947" lon="2.09913">
        <ele>106.36</ele>
        <time>2012-04-12T07:37:57Z</time>
      </trkpt>
      <trkpt lat="48.80946" lon="2.09912">
        <ele>106.36</ele>
        <time>2012-04-12T07:38:11Z</time>
      </trkpt>
      <trkpt lat="48.80928" lon="2.09897">
        <ele>104.92</ele>
        <time>2012-04-12T07:38:27Z</time>
      </trkpt>
      <trkpt lat="48.80907" lon="2.09885">
        <ele>102.52</ele>
        <time>2012-04-12T07:38:44Z</time>
      </trkpt>
      <trkpt lat="48.80886" lon="2.09872">
        <ele>99.63</ele>
        <time>2012-04-12T07:39:00Z</time>
      </trkpt>
      <trkpt lat="48.80865" lon="2.09859">
        <ele>99.63</ele>
        <time>2012-04-12T07:39:17Z</time>
      </trkpt>
      <trkpt lat="48.80846" lon="2.09846">
        <ele>97.23</ele>
        <time>2012-04-12T07:39:32Z</time>
      </trkpt>
      <trkpt lat="48.80824" lon="2.09833">
        <ele>97.23</ele>
        <time>2012-04-12T07:39:49Z</time>
      </trkpt>
      <trkpt lat="48.80803" lon="2.09821">
        <ele>99.63</ele>
        <time>2012-04-12T07:40:05Z</time>
      </trkpt>
      <trkpt lat="48.80785" lon="2.0981">
        <ele>98.67</ele>
        <time>2012-04-12T07:40:19Z</time>
      </trkpt>
      <trkpt lat="48.80762" lon="2.09795">
        <ele>96.27</ele>
        <time>2012-04-12T07:40:37Z</time>
      </trkpt>
      <trkpt lat="48.80745" lon="2.09785">
        <ele>97.23</ele>
        <time>2012-04-12T07:40:51Z</time>
      </trkpt>
      <trkpt lat="48.80723" lon="2.09771">
        <ele>97.23</ele>
        <time>2012-04-12T07:41:09Z</time>
      </trkpt>
      <trkpt lat="48.80704" lon="2.09761">
        <ele>96.75</ele>
        <time>2012-04-12T07:41:24Z</time>
      </trkpt>
      <trkpt lat="48.8068" lon="2.09747">
        <ele>97.23</ele>
        <time>2012-04-12T07:41:42Z</time>
      </trkpt>
      <trkpt lat="48.80663" lon="2.09735">
        <ele>96.75</ele>
        <time>2012-04-12T07:41:56Z</time>
      </trkpt>
      <trkpt lat="48.8064" lon="2.09722">
        <ele>97.23</ele>
        <time>2012-04-12T07:42:14Z</time>
      </trkpt>
      <trkpt lat="48.80618" lon="2.09708">
        <ele>94.83</ele>
        <time>2012-04-12T07:42:32Z</time>
      </trkpt>
      <trkpt lat="48.80599" lon="2.09695">
        <ele>92.9</ele>
        <time>2012-04-12T07:42:47Z</time>
      </trkpt>
      <trkpt lat="48.80581" lon="2.09683">
        <ele>91.94</ele>
        <time>2012-04-12T07:43:02Z</time>
      </trkpt>
      <trkpt lat="48.80561" lon="2.09672">
        <ele>92.9</ele>
        <time>2012-04-12T07:43:18Z</time>
      </trkpt>
      <trkpt lat="48.80545" lon="2.09676">
        <ele>94.35</ele>
        <time>2012-04-12T07:43:30Z</time>
      </trkpt>
      <trkpt lat="48.80529" lon="2.0969">
        <ele>98.67</ele>
        <time>2012-04-12T07:43:43Z</time>
      </trkpt>
      <trkpt lat="48.80526" lon="2.09691">
        <ele>99.15</ele>
        <time>2012-04-12T07:43:46Z</time>
      </trkpt>
      <trkpt lat="48.80515" lon="2.09718">
        <ele>102.04</ele>
        <time>2012-04-12T07:44:03Z</time>
      </trkpt>
      <trkpt lat="48.8052" lon="2.09752">
        <ele>103</ele>
        <time>2012-04-12T07:44:22Z</time>
      </trkpt>
      <trkpt lat="48.8053" lon="2.09768">
        <ele>102.52</ele>
        <time>2012-04-12T07:44:36Z</time>
      </trkpt>
      <trkpt lat="48.80529" lon="2.09777">
        <ele>102.52</ele>
        <time>2012-04-12T07:44:53Z</time>
      </trkpt>
      <trkpt lat="48.80537" lon="2.09781">
        <ele>102.04</ele>
        <time>2012-04-12T07:44:59Z</time>
      </trkpt>
      <trkpt lat="48.80564" lon="2.09798">
        <ele>101.56</ele>
        <time>2012-04-12T07:45:20Z</time>
      </trkpt>
      <trkpt lat="48.8059" lon="2.09813">
        <ele>102.04</ele>
        <time>2012-04-12T07:45:41Z</time>
      </trkpt>
      <trkpt lat="48.80614" lon="2.09828">
        <ele>103.96</ele>
        <time>2012-04-12T07:46:01Z</time>
      </trkpt>
      <trkpt lat="48.80637" lon="2.09841">
        <ele>105.88</ele>
        <time>2012-04-12T07:46:19Z</time>
      </trkpt>
      <trkpt lat="48.80661" lon="2.09855">
        <ele>107.81</ele>
        <time>2012-04-12T07:46:38Z</time>
      </trkpt>
      <trkpt lat="48.80664" lon="2.09858">
        <ele>108.29</ele>
        <time>2012-04-12T07:46:52Z</time>
      </trkpt>
      <trkpt lat="48.8069" lon="2.09872">
        <ele>105.88</ele>
        <time>2012-04-12T07:47:12Z</time>
      </trkpt>
      <trkpt lat="48.80716" lon="2.09888">
        <ele>105.88</ele>
        <time>2012-04-12T07:47:32Z</time>
      </trkpt>
      <trkpt lat="48.8074" lon="2.099">
        <ele>105.4</ele>
        <time>2012-04-12T07:47:50Z</time>
      </trkpt>
      <trkpt lat="48.8075" lon="2.0991">
        <ele>104.92</ele>
        <time>2012-04-12T07:48:03Z</time>
      </trkpt>
      <trkpt lat="48.80775" lon="2.09923">
        <ele>105.4</ele>
        <time>2012-04-12T07:48:22Z</time>
      </trkpt>
      <trkpt lat="48.80797" lon="2.09937">
        <ele>104.92</ele>
        <time>2012-04-12T07:48:41Z</time>
      </trkpt>
      <trkpt lat="48.80819" lon="2.09951">
        <ele>104.92</ele>
        <time>2012-04-12T07:48:58Z</time>
      </trkpt>
      <trkpt lat="48.8084" lon="2.09963">
        <ele>106.36</ele>
        <time>2012-04-12T07:49:16Z</time>
      </trkpt>
      <trkpt lat="48.80864" lon="2.09978">
        <ele>105.88</ele>
        <time>2012-04-12T07:49:37Z</time>
      </trkpt>
      <trkpt lat="48.80883" lon="2.09989">
        <ele>105.88</ele>
        <time>2012-04-12T07:49:54Z</time>
      </trkpt>
      <trkpt lat="48.80903" lon="2.10002">
        <ele>103.96</ele>
        <time>2012-04-12T07:50:10Z</time>
      </trkpt>
      <trkpt lat="48.80922" lon="2.10013">
        <ele>104.44</ele>
        <time>2012-04-12T07:50:25Z</time>
      </trkpt>
      <trkpt lat="48.80928" lon="2.10018">
        <ele>104.44</ele>
        <time>2012-04-12T07:50:30Z</time>
      </trkpt>
      <trkpt lat="48.80926" lon="2.10039">
        <ele>103.96</ele>
        <time>2012-04-12T07:50:44Z</time>
      </trkpt>
      <trkpt lat="48.80926" lon="2.10039">
        <ele>103.96</ele>
        <time>2012-04-12T07:50:54Z</time>
      </trkpt>
      <trkpt lat="48.80927" lon="2.10045">
        <ele>103.96</ele>
        <time>2012-04-12T07:50:58Z</time>
      </trkpt>
      <trkpt lat="48.80941" lon="2.1007">
        <ele>103.96</ele>
        <time>2012-04-12T07:51:14Z</time>
      </trkpt>
      <trkpt lat="48.8094" lon="2.10078">
        <ele>103.96</ele>
        <time>2012-04-12T07:51:18Z</time>
      </trkpt>
      <trkpt lat="48.80934" lon="2.10103">
        <ele>104.44</ele>
        <time>2012-04-12T07:51:31Z</time>
      </trkpt>
      <trkpt lat="48.80933" lon="2.10106">
        <ele>104.92</ele>
        <time>2012-04-12T07:51:32Z</time>
      </trkpt>
      <trkpt lat="48.80935" lon="2.1011">
        <ele>104.92</ele>
        <time>2012-04-12T07:51:37Z</time>
      </trkpt>
      <trkpt lat="48.80955" lon="2.10119">
        <ele>103.96</ele>
        <time>2012-04-12T07:51:52Z</time>
      </trkpt>
      <trkpt lat="48.80951" lon="2.10145">
        <ele>103.48</ele>
        <time>2012-04-12T07:52:05Z</time>
      </trkpt>
      <trkpt lat="48.8095" lon="2.10148">
        <ele>103.48</ele>
        <time>2012-04-12T07:52:07Z</time>
      </trkpt>
      <trkpt lat="48.80948" lon="2.10153">
        <ele>103.48</ele>
        <time>2012-04-12T07:52:21Z</time>
      </trkpt>
      <trkpt lat="48.80948" lon="2.10153">
        <ele>103.48</ele>
        <time>2012-04-12T07:52:44Z</time>
      </trkpt>
      <trkpt lat="48.80944" lon="2.10169">
        <ele>103.96</ele>
        <time>2012-04-12T07:53:01Z</time>
      </trkpt>
      <trkpt lat="48.80936" lon="2.10198">
        <ele>104.44</ele>
        <time>2012-04-12T07:53:16Z</time>
      </trkpt>
      <trkpt lat="48.80928" lon="2.10228">
        <ele>104.92</ele>
        <time>2012-04-12T07:53:32Z</time>
      </trkpt>
      <trkpt lat="48.80921" lon="2.10258">
        <ele>106.84</ele>
        <time>2012-04-12T07:53:48Z</time>
      </trkpt>
      <trkpt lat="48.80916" lon="2.10274">
        <ele>107.81</ele>
        <time>2012-04-12T07:54:03Z</time>
      </trkpt>
      <trkpt lat="48.80912" lon="2.10294">
        <ele>108.29</ele>
        <time>2012-04-12T07:54:20Z</time>
      </trkpt>
      <trkpt lat="48.80904" lon="2.10324">
        <ele>107.81</ele>
        <time>2012-04-12T07:54:36Z</time>
      </trkpt>
      <trkpt lat="48.80896" lon="2.10354">
        <ele>107.32</ele>
        <time>2012-04-12T07:54:52Z</time>
      </trkpt>
      <trkpt lat="48.8089" lon="2.10379">
        <ele>107.81</ele>
        <time>2012-04-12T07:55:06Z</time>
      </trkpt>
      <trkpt lat="48.80881" lon="2.10405">
        <ele>106.84</ele>
        <time>2012-04-12T07:55:20Z</time>
      </trkpt>
      <trkpt lat="48.80875" lon="2.1043">
        <ele>106.36</ele>
        <time>2012-04-12T07:55:34Z</time>
      </trkpt>
      <trkpt lat="48.80874" lon="2.10434">
        <ele>106.36</ele>
        <time>2012-04-12T07:55:36Z</time>
      </trkpt>
      <trkpt lat="48.80869" lon="2.10456">
        <ele>106.84</ele>
        <time>2012-04-12T07:55:49Z</time>
      </trkpt>
      <trkpt lat="48.80862" lon="2.10483">
        <ele>106.36</ele>
        <time>2012-04-12T07:56:04Z</time>
      </trkpt>
      <trkpt lat="48.80858" lon="2.10494">
        <ele>104.44</ele>
        <time>2012-04-12T07:56:18Z</time>
      </trkpt>
      <trkpt lat="48.80851" lon="2.10519">
        <ele>104.92</ele>
        <time>2012-04-12T07:56:32Z</time>
      </trkpt>
      <trkpt lat="48.80847" lon="2.10539">
        <ele>105.88</ele>
        <time>2012-04-12T07:56:44Z</time>
      </trkpt>
      <trkpt lat="48.80841" lon="2.10558">
        <ele>105.88</ele>
        <time>2012-04-12T07:56:58Z</time>
      </trkpt>
      <trkpt lat="48.8084" lon="2.1056">
        <ele>105.88</ele>
        <time>2012-04-12T07:57:17Z</time>
      </trkpt>
      <trkpt lat="48.8084" lon="2.1056">
        <ele>105.88</ele>
        <time>2012-04-12T07:57:34Z</time>
      </trkpt>
      <trkpt lat="48.80832" lon="2.10587">
        <ele>106.36</ele>
        <time>2012-04-12T07:57:49Z</time>
      </trkpt>
      <trkpt lat="48.80824" lon="2.10618">
        <ele>105.88</ele>
        <time>2012-04-12T07:58:06Z</time>
      </trkpt>
      <trkpt lat="48.80824" lon="2.10619">
        <ele>105.88</ele>
        <time>2012-04-12T07:58:07Z</time>
      </trkpt>
      <trkpt lat="48.80815" lon="2.10652">
        <ele>106.84</ele>
        <time>2012-04-12T07:58:24Z</time>
      </trkpt>
      <trkpt lat="48.80815" lon="2.10655">
        <ele>106.84</ele>
        <time>2012-04-12T07:58:26Z</time>
      </trkpt>
      <trkpt lat="48.80806" lon="2.10687">
        <ele>103</ele>
        <time>2012-04-12T07:58:43Z</time>
      </trkpt>
      <trkpt lat="48.80798" lon="2.10722">
        <ele>103</ele>
        <time>2012-04-12T07:59:01Z</time>
      </trkpt>
      <trkpt lat="48.80786" lon="2.10748">
        <ele>103</ele>
        <time>2012-04-12T07:59:17Z</time>
      </trkpt>
      <trkpt lat="48.80785" lon="2.10749">
        <ele>103</ele>
        <time>2012-04-12T07:59:18Z</time>
      </trkpt>
      <trkpt lat="48.80781" lon="2.10751">
        <ele>103.48</ele>
        <time>2012-04-12T07:59:22Z</time>
      </trkpt>
      <trkpt lat="48.80759" lon="2.10769">
        <ele>104.92</ele>
        <time>2012-04-12T07:59:40Z</time>
      </trkpt>
      <trkpt lat="48.80758" lon="2.10771">
        <ele>104.92</ele>
        <time>2012-04-12T07:59:41Z</time>
      </trkpt>
      <trkpt lat="48.80753" lon="2.10769">
        <ele>105.88</ele>
        <time>2012-04-12T07:59:46Z</time>
      </trkpt>
      <trkpt lat="48.80743" lon="2.10796">
        <ele>104.44</ele>
        <time>2012-04-12T08:00:02Z</time>
      </trkpt>
      <trkpt lat="48.8074" lon="2.10799">
        <ele>103.96</ele>
        <time>2012-04-12T08:00:05Z</time>
      </trkpt>
      <trkpt lat="48.80735" lon="2.1081">
        <ele>103</ele>
        <time>2012-04-12T08:00:12Z</time>
      </trkpt>
      <trkpt lat="48.80723" lon="2.10833">
        <ele>99.63</ele>
        <time>2012-04-12T08:00:29Z</time>
      </trkpt>
      <trkpt lat="48.80722" lon="2.10832">
        <ele>99.63</ele>
        <time>2012-04-12T08:00:49Z</time>
      </trkpt>
      <trkpt lat="48.80718" lon="2.1083">
        <ele>99.63</ele>
        <time>2012-04-12T08:01:05Z</time>
      </trkpt>
      <trkpt lat="48.80721" lon="2.10833">
        <ele>100.6</ele>
        <time>2012-04-12T08:01:26Z</time>
      </trkpt>
      <trkpt lat="48.80715" lon="2.10862">
        <ele>101.08</ele>
        <time>2012-04-12T08:01:42Z</time>
      </trkpt>
      <trkpt lat="48.80714" lon="2.10865">
        <ele>101.08</ele>
        <time>2012-04-12T08:01:44Z</time>
      </trkpt>
      <trkpt lat="48.80708" lon="2.10898">
        <ele>103</ele>
        <time>2012-04-12T08:02:01Z</time>
      </trkpt>
      <trkpt lat="48.80701" lon="2.10918">
        <ele>103</ele>
        <time>2012-04-12T08:02:12Z</time>
      </trkpt>
      <trkpt lat="48.80698" lon="2.10928">
        <ele>103</ele>
        <time>2012-04-12T08:02:18Z</time>
      </trkpt>
      <trkpt lat="48.80692" lon="2.10959">
        <ele>104.44</ele>
        <time>2012-04-12T08:02:34Z</time>
      </trkpt>
      <trkpt lat="48.80688" lon="2.10971">
        <ele>104.44</ele>
        <time>2012-04-12T08:02:41Z</time>
      </trkpt>
      <trkpt lat="48.80681" lon="2.10999">
        <ele>106.36</ele>
        <time>2012-04-12T08:02:56Z</time>
      </trkpt>
      <trkpt lat="48.8068" lon="2.11006">
        <ele>106.36</ele>
        <time>2012-04-12T08:02:59Z</time>
      </trkpt>
      <trkpt lat="48.80682" lon="2.11014">
        <ele>106.36</ele>
        <time>2012-04-12T08:03:04Z</time>
      </trkpt>
      <trkpt lat="48.80686" lon="2.11051">
        <ele>105.88</ele>
        <time>2012-04-12T08:03:22Z</time>
      </trkpt>
      <trkpt lat="48.80687" lon="2.11062">
        <ele>105.4</ele>
        <time>2012-04-12T08:03:36Z</time>
      </trkpt>
      <trkpt lat="48.80695" lon="2.11087">
        <ele>105.4</ele>
        <time>2012-04-12T08:03:50Z</time>
      </trkpt>
      <trkpt lat="48.80699" lon="2.11112">
        <ele>104.92</ele>
        <time>2012-04-12T08:04:03Z</time>
      </trkpt>
      <trkpt lat="48.80699" lon="2.11116">
        <ele>104.92</ele>
        <time>2012-04-12T08:04:05Z</time>
      </trkpt>
      <trkpt lat="48.80699" lon="2.11144">
        <ele>104.92</ele>
        <time>2012-04-12T08:04:19Z</time>
      </trkpt>
      <trkpt lat="48.80698" lon="2.11149">
        <ele>104.92</ele>
        <time>2012-04-12T08:04:22Z</time>
      </trkpt>
      <trkpt lat="48.80694" lon="2.1117">
        <ele>104.92</ele>
        <time>2012-04-12T08:04:35Z</time>
      </trkpt>
      <trkpt lat="48.80688" lon="2.11194">
        <ele>106.36</ele>
        <time>2012-04-12T08:04:48Z</time>
      </trkpt>
      <trkpt lat="48.80684" lon="2.11206">
        <ele>107.32</ele>
        <time>2012-04-12T08:05:00Z</time>
      </trkpt>
      <trkpt lat="48.80683" lon="2.11209">
        <ele>108.29</ele>
        <time>2012-04-12T08:05:06Z</time>
      </trkpt>
      <trkpt lat="48.80677" lon="2.11241">
        <ele>110.21</ele>
        <time>2012-04-12T08:05:23Z</time>
      </trkpt>
      <trkpt lat="48.80669" lon="2.11267">
        <ele>111.17</ele>
        <time>2012-04-12T08:05:38Z</time>
      </trkpt>
      <trkpt lat="48.80663" lon="2.11281">
        <ele>113.09</ele>
        <time>2012-04-12T08:05:48Z</time>
      </trkpt>
      <trkpt lat="48.8066" lon="2.11276">
        <ele>113.57</ele>
        <time>2012-04-12T08:05:53Z</time>
      </trkpt>
      <trkpt lat="48.80649" lon="2.11271">
        <ele>114.05</ele>
        <time>2012-04-12T08:06:03Z</time>
      </trkpt>
      <trkpt lat="48.8064" lon="2.11266">
        <ele>114.05</ele>
        <time>2012-04-12T08:06:20Z</time>
      </trkpt>
      <trkpt lat="48.8064" lon="2.11265">
        <ele>114.05</ele>
        <time>2012-04-12T08:06:39Z</time>
      </trkpt>
      <trkpt lat="48.8064" lon="2.11265">
        <ele>114.05</ele>
        <time>2012-04-12T08:06:45Z</time>
      </trkpt>
      <trkpt lat="48.80659" lon="2.11275">
        <ele>113.09</ele>
        <time>2012-04-12T08:07:01Z</time>
      </trkpt>
      <trkpt lat="48.80662" lon="2.11278">
        <ele>112.61</ele>
        <time>2012-04-12T08:07:03Z</time>
      </trkpt>
      <trkpt lat="48.80656" lon="2.11307">
        <ele>112.61</ele>
        <time>2012-04-12T08:07:18Z</time>
      </trkpt>
      <trkpt lat="48.8065" lon="2.11337">
        <ele>113.09</ele>
        <time>2012-04-12T08:07:34Z</time>
      </trkpt>
      <trkpt lat="48.80645" lon="2.11356">
        <ele>113.09</ele>
        <time>2012-04-12T08:07:49Z</time>
      </trkpt>
      <trkpt lat="48.80645" lon="2.11356">
        <ele>113.09</ele>
        <time>2012-04-12T08:08:23Z</time>
      </trkpt>
      <trkpt lat="48.80644" lon="2.11359">
        <ele>113.09</ele>
        <time>2012-04-12T08:08:47Z</time>
      </trkpt>
      <trkpt lat="48.80644" lon="2.11359">
        <ele>113.09</ele>
        <time>2012-04-12T08:09:16Z</time>
      </trkpt>
      <trkpt lat="48.8064" lon="2.11381">
        <ele>114.05</ele>
        <time>2012-04-12T08:09:34Z</time>
      </trkpt>
      <trkpt lat="48.80639" lon="2.11383">
        <ele>114.05</ele>
        <time>2012-04-12T08:09:52Z</time>
      </trkpt>
      <trkpt lat="48.80639" lon="2.11382">
        <ele>113.57</ele>
        <time>2012-04-12T08:10:14Z</time>
      </trkpt>
      <trkpt lat="48.80639" lon="2.11382">
        <ele>113.57</ele>
        <time>2012-04-12T08:10:42Z</time>
      </trkpt>
      <trkpt lat="48.80636" lon="2.11392">
        <ele>114.05</ele>
        <time>2012-04-12T08:10:59Z</time>
      </trkpt>
      <trkpt lat="48.80628" lon="2.11427">
        <ele>114.53</ele>
        <time>2012-04-12T08:11:16Z</time>
      </trkpt>
      <trkpt lat="48.80624" lon="2.11437">
        <ele>114.53</ele>
        <time>2012-04-12T08:11:22Z</time>
      </trkpt>
      <trkpt lat="48.80624" lon="2.11449">
        <ele>114.53</ele>
        <time>2012-04-12T08:11:41Z</time>
      </trkpt>
      <trkpt lat="48.80623" lon="2.11452">
        <ele>115.01</ele>
        <time>2012-04-12T08:11:59Z</time>
      </trkpt>
      <trkpt lat="48.80623" lon="2.11453">
        <ele>115.01</ele>
        <time>2012-04-12T08:12:18Z</time>
      </trkpt>
      <trkpt lat="48.80617" lon="2.11474">
        <ele>115.98</ele>
        <time>2012-04-12T08:12:33Z</time>
      </trkpt>
      <trkpt lat="48.8061" lon="2.11503">
        <ele>116.46</ele>
        <time>2012-04-12T08:12:48Z</time>
      </trkpt>
      <trkpt lat="48.8061" lon="2.11507">
        <ele>116.94</ele>
        <time>2012-04-12T08:13:06Z</time>
      </trkpt>
      <trkpt lat="48.8061" lon="2.11507">
        <ele>116.94</ele>
        <time>2012-04-12T08:13:30Z</time>
      </trkpt>
      <trkpt lat="48.80609" lon="2.11507">
        <ele>117.42</ele>
        <time>2012-04-12T08:13:59Z</time>
      </trkpt>
      <trkpt lat="48.80609" lon="2.11507">
        <ele>117.42</ele>
        <time>2012-04-12T08:14:09Z</time>
      </trkpt>
      <trkpt lat="48.80607" lon="2.11511">
        <ele>116.94</ele>
        <time>2012-04-12T08:14:11Z</time>
      </trkpt>
      <trkpt lat="48.80599" lon="2.11541">
        <ele>117.9</ele>
        <time>2012-04-12T08:14:27Z</time>
      </trkpt>
      <trkpt lat="48.80592" lon="2.11565">
        <ele>118.38</ele>
        <time>2012-04-12T08:14:40Z</time>
      </trkpt>
      <trkpt lat="48.80587" lon="2.11577">
        <ele>118.86</ele>
        <time>2012-04-12T08:14:47Z</time>
      </trkpt>
      <trkpt lat="48.80585" lon="2.11588">
        <ele>119.34</ele>
        <time>2012-04-12T08:14:53Z</time>
      </trkpt>
      <trkpt lat="48.80578" lon="2.11614">
        <ele>119.82</ele>
        <time>2012-04-12T08:15:08Z</time>
      </trkpt>
      <trkpt lat="48.80577" lon="2.11621">
        <ele>119.82</ele>
        <time>2012-04-12T08:15:12Z</time>
      </trkpt>
      <trkpt lat="48.80573" lon="2.11648">
        <ele>120.78</ele>
        <time>2012-04-12T08:15:27Z</time>
      </trkpt>
      <trkpt lat="48.80568" lon="2.11672">
        <ele>122.22</ele>
        <time>2012-04-12T08:15:41Z</time>
      </trkpt>
      <trkpt lat="48.80562" lon="2.11697">
        <ele>123.67</ele>
        <time>2012-04-12T08:15:55Z</time>
      </trkpt>
      <trkpt lat="48.80558" lon="2.11707">
        <ele>124.15</ele>
        <time>2012-04-12T08:16:02Z</time>
      </trkpt>
      <trkpt lat="48.80557" lon="2.11708">
        <ele>124.63</ele>
        <time>2012-04-12T08:16:20Z</time>
      </trkpt>
      <trkpt lat="48.80556" lon="2.1171">
        <ele>124.63</ele>
        <time>2012-04-12T08:16:21Z</time>
      </trkpt>
      <trkpt lat="48.8055" lon="2.11729">
        <ele>125.59</ele>
        <time>2012-04-12T08:16:35Z</time>
      </trkpt>
      <trkpt lat="48.80536" lon="2.11741">
        <ele>126.55</ele>
        <time>2012-04-12T08:16:48Z</time>
      </trkpt>
      <trkpt lat="48.80526" lon="2.11742">
        <ele>126.07</ele>
        <time>2012-04-12T08:16:57Z</time>
      </trkpt>
      <trkpt lat="48.80525" lon="2.11737">
        <ele>126.07</ele>
        <time>2012-04-12T08:17:11Z</time>
      </trkpt>
      <trkpt lat="48.80525" lon="2.11737">
        <ele>126.07</ele>
        <time>2012-04-12T08:17:37Z</time>
      </trkpt>
      <trkpt lat="48.80525" lon="2.11737">
        <ele>126.07</ele>
        <time>2012-04-12T08:17:42Z</time>
      </trkpt>
      <trkpt lat="48.80518" lon="2.11749">
        <ele>126.07</ele>
        <time>2012-04-12T08:17:53Z</time>
      </trkpt>
      <trkpt lat="48.80513" lon="2.11765">
        <ele>127.51</ele>
        <time>2012-04-12T08:18:07Z</time>
      </trkpt>
      <trkpt lat="48.80511" lon="2.11773">
        <ele>128.47</ele>
        <time>2012-04-12T08:18:14Z</time>
      </trkpt>
      <trkpt lat="48.8052" lon="2.11798">
        <ele>129.92</ele>
        <time>2012-04-12T08:18:29Z</time>
      </trkpt>
      <trkpt lat="48.80523" lon="2.11801">
        <ele>130.4</ele>
        <time>2012-04-12T08:18:32Z</time>
      </trkpt>
      <trkpt lat="48.80538" lon="2.11813">
        <ele>131.36</ele>
        <time>2012-04-12T08:18:48Z</time>
      </trkpt>
      <trkpt lat="48.80543" lon="2.11813">
        <ele>130.4</ele>
        <time>2012-04-12T08:19:04Z</time>
      </trkpt>
      <trkpt lat="48.80543" lon="2.11815">
        <ele>130.4</ele>
        <time>2012-04-12T08:19:10Z</time>
      </trkpt>
      <trkpt lat="48.80542" lon="2.1182">
        <ele>130.88</ele>
        <time>2012-04-12T08:19:13Z</time>
      </trkpt>
      <trkpt lat="48.80532" lon="2.11834">
        <ele>133.76</ele>
        <time>2012-04-12T08:19:29Z</time>
      </trkpt>
      <trkpt lat="48.80525" lon="2.11845">
        <ele>134.24</ele>
        <time>2012-04-12T08:19:42Z</time>
      </trkpt>
      <trkpt lat="48.80509" lon="2.11849">
        <ele>137.13</ele>
        <time>2012-04-12T08:19:57Z</time>
      </trkpt>
      <trkpt lat="48.80489" lon="2.11842">
        <ele>138.57</ele>
        <time>2012-04-12T08:20:14Z</time>
      </trkpt>
      <trkpt lat="48.80488" lon="2.11842">
        <ele>138.57</ele>
        <time>2012-04-12T08:20:15Z</time>
      </trkpt>
      <trkpt lat="48.80477" lon="2.11848">
        <ele>138.57</ele>
        <time>2012-04-12T08:20:26Z</time>
      </trkpt>
      <trkpt lat="48.8046" lon="2.11852">
        <ele>138.09</ele>
        <time>2012-04-12T08:20:42Z</time>
      </trkpt>
      <trkpt lat="48.80443" lon="2.11863">
        <ele>137.61</ele>
        <time>2012-04-12T08:20:57Z</time>
      </trkpt>
      <trkpt lat="48.80428" lon="2.11873">
        <ele>137.13</ele>
        <time>2012-04-12T08:21:14Z</time>
      </trkpt>
      <trkpt lat="48.80413" lon="2.1188">
        <ele>137.61</ele>
        <time>2012-04-12T08:21:29Z</time>
      </trkpt>
      <trkpt lat="48.80409" lon="2.11881">
        <ele>137.13</ele>
        <time>2012-04-12T08:21:33Z</time>
      </trkpt>
      <trkpt lat="48.80406" lon="2.11884">
        <ele>137.13</ele>
        <time>2012-04-12T08:21:36Z</time>
      </trkpt>
      <trkpt lat="48.80403" lon="2.11893">
        <ele>137.13</ele>
        <time>2012-04-12T08:21:43Z</time>
      </trkpt>
      <trkpt lat="48.80381" lon="2.11898">
        <ele>137.61</ele>
        <time>2012-04-12T08:22:02Z</time>
      </trkpt>
      <trkpt lat="48.80365" lon="2.11888">
        <ele>138.57</ele>
        <time>2012-04-12T08:22:16Z</time>
      </trkpt>
      <trkpt lat="48.80348" lon="2.11886">
        <ele>139.53</ele>
        <time>2012-04-12T08:22:30Z</time>
      </trkpt>
      <trkpt lat="48.80329" lon="2.11879">
        <ele>139.53</ele>
        <time>2012-04-12T08:22:46Z</time>
      </trkpt>
      <trkpt lat="48.8032" lon="2.11873">
        <ele>139.05</ele>
        <time>2012-04-12T08:23:01Z</time>
      </trkpt>
      <trkpt lat="48.80321" lon="2.11872">
        <ele>139.05</ele>
        <time>2012-04-12T08:23:23Z</time>
      </trkpt>
      <trkpt lat="48.80322" lon="2.11868">
        <ele>138.57</ele>
        <time>2012-04-12T08:23:25Z</time>
      </trkpt>
      <trkpt lat="48.80326" lon="2.11849">
        <ele>138.09</ele>
        <time>2012-04-12T08:23:40Z</time>
      </trkpt>
      <trkpt lat="48.80326" lon="2.11848">
        <ele>137.61</ele>
        <time>2012-04-12T08:23:41Z</time>
      </trkpt>
      <trkpt lat="48.80332" lon="2.11841">
        <ele>138.09</ele>
        <time>2012-04-12T08:23:48Z</time>
      </trkpt>
      <trkpt lat="48.80332" lon="2.11831">
        <ele>138.09</ele>
        <time>2012-04-12T08:23:54Z</time>
      </trkpt>
      <trkpt lat="48.80333" lon="2.11823">
        <ele>137.61</ele>
        <time>2012-04-12T08:24:00Z</time>
      </trkpt>
      <trkpt lat="48.80326" lon="2.11798">
        <ele>137.13</ele>
        <time>2012-04-12T08:24:16Z</time>
      </trkpt>
      <trkpt lat="48.80328" lon="2.11783">
        <ele>136.64</ele>
        <time>2012-04-12T08:24:25Z</time>
      </trkpt>
      <trkpt lat="48.80328" lon="2.1177">
        <ele>136.64</ele>
        <time>2012-04-12T08:24:32Z</time>
      </trkpt>
      <trkpt lat="48.80326" lon="2.11766">
        <ele>136.16</ele>
        <time>2012-04-12T08:24:46Z</time>
      </trkpt>
      <trkpt lat="48.80306" lon="2.11755">
        <ele>136.16</ele>
        <time>2012-04-12T08:25:04Z</time>
      </trkpt>
      <trkpt lat="48.80291" lon="2.11746">
        <ele>136.16</ele>
        <time>2012-04-12T08:25:19Z</time>
      </trkpt>
      <trkpt lat="48.80286" lon="2.11741">
        <ele>135.68</ele>
        <time>2012-04-12T08:25:32Z</time>
      </trkpt>
      <trkpt lat="48.80275" lon="2.11737">
        <ele>134.24</ele>
        <time>2012-04-12T08:25:49Z</time>
      </trkpt>
      <trkpt lat="48.8027" lon="2.11738">
        <ele>133.76</ele>
        <time>2012-04-12T08:25:55Z</time>
      </trkpt>
      <trkpt lat="48.80258" lon="2.11741">
        <ele>131.84</ele>
        <time>2012-04-12T08:26:11Z</time>
      </trkpt>
      <trkpt lat="48.80246" lon="2.11737">
        <ele>130.88</ele>
        <time>2012-04-12T08:26:25Z</time>
      </trkpt>
      <trkpt lat="48.80236" lon="2.11734">
        <ele>127.99</ele>
        <time>2012-04-12T08:26:43Z</time>
      </trkpt>
      <trkpt lat="48.8023" lon="2.11734">
        <ele>126.55</ele>
        <time>2012-04-12T08:27:00Z</time>
      </trkpt>
      <trkpt lat="48.80229" lon="2.11736">
        <ele>126.07</ele>
        <time>2012-04-12T08:27:16Z</time>
      </trkpt>
      <trkpt lat="48.80227" lon="2.11732">
        <ele>126.07</ele>
        <time>2012-04-12T08:27:29Z</time>
      </trkpt>
      <trkpt lat="48.8021" lon="2.11713">
        <ele>125.59</ele>
        <time>2012-04-12T08:27:46Z</time>
      </trkpt>
      <trkpt lat="48.80202" lon="2.11707">
        <ele>124.63</ele>
        <time>2012-04-12T08:28:07Z</time>
      </trkpt>
      <trkpt lat="48.80199" lon="2.11704">
        <ele>124.63</ele>
        <time>2012-04-12T08:28:22Z</time>
      </trkpt>
      <trkpt lat="48.80179" lon="2.11691">
        <ele>124.15</ele>
        <time>2012-04-12T08:28:43Z</time>
      </trkpt>
      <trkpt lat="48.80175" lon="2.11688">
        <ele>123.19</ele>
        <time>2012-04-12T08:29:02Z</time>
      </trkpt>
      <trkpt lat="48.80157" lon="2.11667">
        <ele>121.74</ele>
        <time>2012-04-12T08:29:21Z</time>
      </trkpt>
      <trkpt lat="48.80152" lon="2.11663">
        <ele>120.78</ele>
        <time>2012-04-12T08:29:27Z</time>
      </trkpt>
      <trkpt lat="48.80129" lon="2.11658">
        <ele>118.38</ele>
        <time>2012-04-12T08:29:45Z</time>
      </trkpt>
      <trkpt lat="48.80109" lon="2.11656">
        <ele>117.9</ele>
        <time>2012-04-12T08:30:03Z</time>
      </trkpt>
      <trkpt lat="48.80093" lon="2.11655">
        <ele>116.94</ele>
        <time>2012-04-12T08:30:18Z</time>
      </trkpt>
      <trkpt lat="48.80084" lon="2.1166">
        <ele>116.46</ele>
        <time>2012-04-12T08:30:34Z</time>
      </trkpt>
      <trkpt lat="48.80084" lon="2.1166">
        <ele>116.46</ele>
        <time>2012-04-12T08:30:59Z</time>
      </trkpt>
      <trkpt lat="48.80081" lon="2.11652">
        <ele>116.46</ele>
        <time>2012-04-12T08:31:17Z</time>
      </trkpt>
      <trkpt lat="48.80081" lon="2.11648">
        <ele>116.46</ele>
        <time>2012-04-12T08:31:36Z</time>
      </trkpt>
      <trkpt lat="48.8008" lon="2.11648">
        <ele>116.46</ele>
        <time>2012-04-12T08:31:58Z</time>
      </trkpt>
      <trkpt lat="48.80079" lon="2.11643">
        <ele>116.46</ele>
        <time>2012-04-12T08:32:22Z</time>
      </trkpt>
      <trkpt lat="48.80079" lon="2.11641">
        <ele>116.46</ele>
        <time>2012-04-12T08:32:29Z</time>
      </trkpt>
      <trkpt lat="48.80071" lon="2.11622">
        <ele>116.94</ele>
        <time>2012-04-12T08:32:41Z</time>
      </trkpt>
      <trkpt lat="48.80066" lon="2.11616">
        <ele>117.42</ele>
        <time>2012-04-12T08:32:45Z</time>
      </trkpt>
      <trkpt lat="48.80053" lon="2.11599">
        <ele>119.34</ele>
        <time>2012-04-12T08:33:00Z</time>
      </trkpt>
      <trkpt lat="48.80039" lon="2.11589">
        <ele>119.34</ele>
        <time>2012-04-12T08:33:12Z</time>
      </trkpt>
      <trkpt lat="48.80036" lon="2.11575">
        <ele>119.82</ele>
        <time>2012-04-12T08:33:20Z</time>
      </trkpt>
      <trkpt lat="48.80039" lon="2.11558">
        <ele>118.38</ele>
        <time>2012-04-12T08:33:30Z</time>
      </trkpt>
      <trkpt lat="48.80037" lon="2.11557">
        <ele>117.9</ele>
        <time>2012-04-12T08:33:33Z</time>
      </trkpt>
      <trkpt lat="48.8002" lon="2.11545">
        <ele>116.94</ele>
        <time>2012-04-12T08:33:48Z</time>
      </trkpt>
      <trkpt lat="48.80004" lon="2.11535">
        <ele>116.94</ele>
        <time>2012-04-12T08:34:02Z</time>
      </trkpt>
      <trkpt lat="48.79987" lon="2.11524">
        <ele>116.46</ele>
        <time>2012-04-12T08:34:17Z</time>
      </trkpt>
      <trkpt lat="48.79971" lon="2.11511">
        <ele>115.98</ele>
        <time>2012-04-12T08:34:32Z</time>
      </trkpt>
      <trkpt lat="48.79959" lon="2.11501">
        <ele>115.5</ele>
        <time>2012-04-12T08:34:44Z</time>
      </trkpt>
      <trkpt lat="48.79942" lon="2.11494">
        <ele>114.53</ele>
        <time>2012-04-12T08:34:58Z</time>
      </trkpt>
      <trkpt lat="48.79925" lon="2.11483">
        <ele>114.53</ele>
        <time>2012-04-12T08:35:13Z</time>
      </trkpt>
      <trkpt lat="48.79914" lon="2.11477">
        <ele>114.53</ele>
        <time>2012-04-12T08:35:22Z</time>
      </trkpt>
      <trkpt lat="48.79906" lon="2.11468">
        <ele>114.53</ele>
        <time>2012-04-12T08:35:31Z</time>
      </trkpt>
      <trkpt lat="48.79888" lon="2.11459">
        <ele>113.57</ele>
        <time>2012-04-12T08:35:46Z</time>
      </trkpt>
      <trkpt lat="48.79879" lon="2.11454">
        <ele>113.57</ele>
        <time>2012-04-12T08:36:00Z</time>
      </trkpt>
      <trkpt lat="48.79861" lon="2.11443">
        <ele>113.09</ele>
        <time>2012-04-12T08:36:15Z</time>
      </trkpt>
      <trkpt lat="48.79853" lon="2.11438">
        <ele>113.09</ele>
        <time>2012-04-12T08:36:22Z</time>
      </trkpt>
      <trkpt lat="48.79834" lon="2.11423">
        <ele>112.61</ele>
        <time>2012-04-12T08:36:39Z</time>
      </trkpt>
      <trkpt lat="48.79833" lon="2.11423">
        <ele>112.61</ele>
        <time>2012-04-12T08:36:40Z</time>
      </trkpt>
      <trkpt lat="48.79826" lon="2.1142">
        <ele>112.61</ele>
        <time>2012-04-12T08:36:45Z</time>
      </trkpt>
      <trkpt lat="48.79813" lon="2.11412">
        <ele>113.09</ele>
        <time>2012-04-12T08:36:56Z</time>
      </trkpt>
      <trkpt lat="48.79804" lon="2.114">
        <ele>113.09</ele>
        <time>2012-04-12T08:37:08Z</time>
      </trkpt>
      <trkpt lat="48.79791" lon="2.11395">
        <ele>113.57</ele>
        <time>2012-04-12T08:37:20Z</time>
      </trkpt>
      <trkpt lat="48.79783" lon="2.11396">
        <ele>114.05</ele>
        <time>2012-04-12T08:37:27Z</time>
      </trkpt>
      <trkpt lat="48.79762" lon="2.11382">
        <ele>114.53</ele>
        <time>2012-04-12T08:37:45Z</time>
      </trkpt>
      <trkpt lat="48.79744" lon="2.11372">
        <ele>114.53</ele>
        <time>2012-04-12T08:38:00Z</time>
      </trkpt>
      <trkpt lat="48.79728" lon="2.1136">
        <ele>114.53</ele>
        <time>2012-04-12T08:38:14Z</time>
      </trkpt>
      <trkpt lat="48.79711" lon="2.11351">
        <ele>114.53</ele>
        <time>2012-04-12T08:38:29Z</time>
      </trkpt>
      <trkpt lat="48.79693" lon="2.11339">
        <ele>113.57</ele>
        <time>2012-04-12T08:38:45Z</time>
      </trkpt>
      <trkpt lat="48.79673" lon="2.11327">
        <ele>114.53</ele>
        <time>2012-04-12T08:39:02Z</time>
      </trkpt>
      <trkpt lat="48.79654" lon="2.11312">
        <ele>115.01</ele>
        <time>2012-04-12T08:39:19Z</time>
      </trkpt>
      <trkpt lat="48.79652" lon="2.11285">
        <ele>115.98</ele>
        <time>2012-04-12T08:39:40Z</time>
      </trkpt>
      <trkpt lat="48.7965" lon="2.11268">
        <ele>116.46</ele>
        <time>2012-04-12T08:39:50Z</time>
      </trkpt>
      <trkpt lat="48.79649" lon="2.11257">
        <ele>117.42</ele>
        <time>2012-04-12T08:40:10Z</time>
      </trkpt>
      <trkpt lat="48.79649" lon="2.11257">
        <ele>116.94</ele>
        <time>2012-04-12T08:40:49Z</time>
      </trkpt>
      <trkpt lat="48.79649" lon="2.11257">
        <ele>116.94</ele>
        <time>2012-04-12T08:41:20Z</time>
      </trkpt>
      <trkpt lat="48.79649" lon="2.11256">
        <ele>116.94</ele>
        <time>2012-04-12T08:41:37Z</time>
      </trkpt>
      <trkpt lat="48.79643" lon="2.11247">
        <ele>117.42</ele>
        <time>2012-04-12T08:41:47Z</time>
      </trkpt>
      <trkpt lat="48.7963" lon="2.11264">
        <ele>115.01</ele>
        <time>2012-04-12T08:42:03Z</time>
      </trkpt>
      <trkpt lat="48.7961" lon="2.11283">
        <ele>115.01</ele>
        <time>2012-04-12T08:42:19Z</time>
      </trkpt>
      <trkpt lat="48.79593" lon="2.11299">
        <ele>113.57</ele>
        <time>2012-04-12T08:42:35Z</time>
      </trkpt>
      <trkpt lat="48.79585" lon="2.11306">
        <ele>112.61</ele>
        <time>2012-04-12T08:42:42Z</time>
      </trkpt>
      <trkpt lat="48.79582" lon="2.1131">
        <ele>112.13</ele>
        <time>2012-04-12T08:42:46Z</time>
      </trkpt>
      <trkpt lat="48.79568" lon="2.11323">
        <ele>112.13</ele>
        <time>2012-04-12T08:42:59Z</time>
      </trkpt>
      <trkpt lat="48.79565" lon="2.11329">
        <ele>112.13</ele>
        <time>2012-04-12T08:43:08Z</time>
      </trkpt>
      <trkpt lat="48.79554" lon="2.11335">
        <ele>113.57</ele>
        <time>2012-04-12T08:43:19Z</time>
      </trkpt>
      <trkpt lat="48.79544" lon="2.11344">
        <ele>114.05</ele>
        <time>2012-04-12T08:43:28Z</time>
      </trkpt>
      <trkpt lat="48.79528" lon="2.11365">
        <ele>114.53</ele>
        <time>2012-04-12T08:43:45Z</time>
      </trkpt>
      <trkpt lat="48.79527" lon="2.11367">
        <ele>114.53</ele>
        <time>2012-04-12T08:44:07Z</time>
      </trkpt>
      <trkpt lat="48.79527" lon="2.11367">
        <ele>114.53</ele>
        <time>2012-04-12T08:44:15Z</time>
      </trkpt>
      <trkpt lat="48.7952" lon="2.11389">
        <ele>114.05</ele>
        <time>2012-04-12T08:44:30Z</time>
      </trkpt>
      <trkpt lat="48.79513" lon="2.11412">
        <ele>114.05</ele>
        <time>2012-04-12T08:44:44Z</time>
      </trkpt>
      <trkpt lat="48.79509" lon="2.11435">
        <ele>114.53</ele>
        <time>2012-04-12T08:44:56Z</time>
      </trkpt>
      <trkpt lat="48.79508" lon="2.1146">
        <ele>113.57</ele>
        <time>2012-04-12T08:45:09Z</time>
      </trkpt>
      <trkpt lat="48.79507" lon="2.11469">
        <ele>113.57</ele>
        <time>2012-04-12T08:45:14Z</time>
      </trkpt>
      <trkpt lat="48.79512" lon="2.11499">
        <ele>113.57</ele>
        <time>2012-04-12T08:45:30Z</time>
      </trkpt>
      <trkpt lat="48.79521" lon="2.11524">
        <ele>114.53</ele>
        <time>2012-04-12T08:45:45Z</time>
      </trkpt>
      <trkpt lat="48.79522" lon="2.11528">
        <ele>115.01</ele>
        <time>2012-04-12T08:45:48Z</time>
      </trkpt>
      <trkpt lat="48.79521" lon="2.11553">
        <ele>116.46</ele>
        <time>2012-04-12T08:46:02Z</time>
      </trkpt>
      <trkpt lat="48.79522" lon="2.11559">
        <ele>116.46</ele>
        <time>2012-04-12T08:46:06Z</time>
      </trkpt>
      <trkpt lat="48.7953" lon="2.11581">
        <ele>117.42</ele>
        <time>2012-04-12T08:46:20Z</time>
      </trkpt>
      <trkpt lat="48.79534" lon="2.11603">
        <ele>116.46</ele>
        <time>2012-04-12T08:46:35Z</time>
      </trkpt>
      <trkpt lat="48.79534" lon="2.11606">
        <ele>116.46</ele>
        <time>2012-04-12T08:46:37Z</time>
      </trkpt>
      <trkpt lat="48.79538" lon="2.11628">
        <ele>116.94</ele>
        <time>2012-04-12T08:46:51Z</time>
      </trkpt>
      <trkpt lat="48.7954" lon="2.11641">
        <ele>117.42</ele>
        <time>2012-04-12T08:47:10Z</time>
      </trkpt>
      <trkpt lat="48.7954" lon="2.11649">
        <ele>116.46</ele>
        <time>2012-04-12T08:47:33Z</time>
      </trkpt>
      <trkpt lat="48.79548" lon="2.11673">
        <ele>118.38</ele>
        <time>2012-04-12T08:47:53Z</time>
      </trkpt>
      <trkpt lat="48.79543" lon="2.11697">
        <ele>120.3</ele>
        <time>2012-04-12T08:48:09Z</time>
      </trkpt>
      <trkpt lat="48.79539" lon="2.11708">
        <ele>121.74</ele>
        <time>2012-04-12T08:48:23Z</time>
      </trkpt>
      <trkpt lat="48.79524" lon="2.1173">
        <ele>123.19</ele>
        <time>2012-04-12T08:48:37Z</time>
      </trkpt>
      <trkpt lat="48.79511" lon="2.11752">
        <ele>124.63</ele>
        <time>2012-04-12T08:48:52Z</time>
      </trkpt>
      <trkpt lat="48.79502" lon="2.11768">
        <ele>125.11</ele>
        <time>2012-04-12T08:49:07Z</time>
      </trkpt>
      <trkpt lat="48.79495" lon="2.11782">
        <ele>126.55</ele>
        <time>2012-04-12T08:49:18Z</time>
      </trkpt>
      <trkpt lat="48.79491" lon="2.11796">
        <ele>127.51</ele>
        <time>2012-04-12T08:49:27Z</time>
      </trkpt>
      <trkpt lat="48.79486" lon="2.11814">
        <ele>129.92</ele>
        <time>2012-04-12T08:49:43Z</time>
      </trkpt>
      <trkpt lat="48.79482" lon="2.11824">
        <ele>129.92</ele>
        <time>2012-04-12T08:49:51Z</time>
      </trkpt>
      <trkpt lat="48.79468" lon="2.11845">
        <ele>129.92</ele>
        <time>2012-04-12T08:50:06Z</time>
      </trkpt>
      <trkpt lat="48.79459" lon="2.11859">
        <ele>131.36</ele>
        <time>2012-04-12T08:50:21Z</time>
      </trkpt>
      <trkpt lat="48.79453" lon="2.11869">
        <ele>131.84</ele>
        <time>2012-04-12T08:50:36Z</time>
      </trkpt>
      <trkpt lat="48.79444" lon="2.1189">
        <ele>132.8</ele>
        <time>2012-04-12T08:50:53Z</time>
      </trkpt>
      <trkpt lat="48.79433" lon="2.1191">
        <ele>132.32</ele>
        <time>2012-04-12T08:51:08Z</time>
      </trkpt>
      <trkpt lat="48.79432" lon="2.11911">
        <ele>132.32</ele>
        <time>2012-04-12T08:51:09Z</time>
      </trkpt>
      <trkpt lat="48.79423" lon="2.11923">
        <ele>132.32</ele>
        <time>2012-04-12T08:51:23Z</time>
      </trkpt>
      <trkpt lat="48.7942" lon="2.11929">
        <ele>132.32</ele>
        <time>2012-04-12T08:51:30Z</time>
      </trkpt>
      <trkpt lat="48.79415" lon="2.11946">
        <ele>133.76</ele>
        <time>2012-04-12T08:51:42Z</time>
      </trkpt>
      <trkpt lat="48.7941" lon="2.11954">
        <ele>134.24</ele>
        <time>2012-04-12T08:51:50Z</time>
      </trkpt>
      <trkpt lat="48.79408" lon="2.11957">
        <ele>134.24</ele>
        <time>2012-04-12T08:51:53Z</time>
      </trkpt>
      <trkpt lat="48.79405" lon="2.11959">
        <ele>134.72</ele>
        <time>2012-04-12T08:51:55Z</time>
      </trkpt>
      <trkpt lat="48.79401" lon="2.11967">
        <ele>135.2</ele>
        <time>2012-04-12T08:52:01Z</time>
      </trkpt>
      <trkpt lat="48.79398" lon="2.11973">
        <ele>136.64</ele>
        <time>2012-04-12T08:52:05Z</time>
      </trkpt>
      <trkpt lat="48.7939" lon="2.11993">
        <ele>138.57</ele>
        <time>2012-04-12T08:52:18Z</time>
      </trkpt>
      <trkpt lat="48.79382" lon="2.12004">
        <ele>139.53</ele>
        <time>2012-04-12T08:52:28Z</time>
      </trkpt>
      <trkpt lat="48.79372" lon="2.1201">
        <ele>141.45</ele>
        <time>2012-04-12T08:52:39Z</time>
      </trkpt>
      <trkpt lat="48.79372" lon="2.1201">
        <ele>141.45</ele>
        <time>2012-04-12T08:53:09Z</time>
      </trkpt>
      <trkpt lat="48.79372" lon="2.12011">
        <ele>141.45</ele>
        <time>2012-04-12T08:53:42Z</time>
      </trkpt>
      <trkpt lat="48.79372" lon="2.12011">
        <ele>141.45</ele>
        <time>2012-04-12T08:53:59Z</time>
      </trkpt>
      <trkpt lat="48.79368" lon="2.12035">
        <ele>140.01</ele>
        <time>2012-04-12T08:54:14Z</time>
      </trkpt>
      <trkpt lat="48.79365" lon="2.12033">
        <ele>139.53</ele>
        <time>2012-04-12T08:54:18Z</time>
      </trkpt>
      <trkpt lat="48.79348" lon="2.12034">
        <ele>140.01</ele>
        <time>2012-04-12T08:54:34Z</time>
      </trkpt>
      <trkpt lat="48.79362" lon="2.12051">
        <ele>140.01</ele>
        <time>2012-04-12T08:54:49Z</time>
      </trkpt>
      <trkpt lat="48.79367" lon="2.12054">
        <ele>140.01</ele>
        <time>2012-04-12T08:54:54Z</time>
      </trkpt>
      <trkpt lat="48.7938" lon="2.12063">
        <ele>139.05</ele>
        <time>2012-04-12T08:55:07Z</time>
      </trkpt>
      <trkpt lat="48.79396" lon="2.12073">
        <ele>137.61</ele>
        <time>2012-04-12T08:55:22Z</time>
      </trkpt>
      <trkpt lat="48.79411" lon="2.12084">
        <ele>135.68</ele>
        <time>2012-04-12T08:55:36Z</time>
      </trkpt>
      <trkpt lat="48.79417" lon="2.12096">
        <ele>134.24</ele>
        <time>2012-04-12T08:55:47Z</time>
      </trkpt>
      <trkpt lat="48.79415" lon="2.12115">
        <ele>130.88</ele>
        <time>2012-04-12T08:55:56Z</time>
      </trkpt>
      <trkpt lat="48.79407" lon="2.12142">
        <ele>127.03</ele>
        <time>2012-04-12T08:56:14Z</time>
      </trkpt>
      <trkpt lat="48.79399" lon="2.12175">
        <ele>127.99</ele>
        <time>2012-04-12T08:56:32Z</time>
      </trkpt>
      <trkpt lat="48.79394" lon="2.12207">
        <ele>126.55</ele>
        <time>2012-04-12T08:56:50Z</time>
      </trkpt>
      <trkpt lat="48.79393" lon="2.12208">
        <ele>126.55</ele>
        <time>2012-04-12T08:56:51Z</time>
      </trkpt>
      <trkpt lat="48.7938" lon="2.12243">
        <ele>125.11</ele>
        <time>2012-04-12T08:57:11Z</time>
      </trkpt>
      <trkpt lat="48.79379" lon="2.12265">
        <ele>124.63</ele>
        <time>2012-04-12T08:57:24Z</time>
      </trkpt>
      <trkpt lat="48.79365" lon="2.12277">
        <ele>120.78</ele>
        <time>2012-04-12T08:57:40Z</time>
      </trkpt>
      <trkpt lat="48.79352" lon="2.1231">
        <ele>121.74</ele>
        <time>2012-04-12T08:57:59Z</time>
      </trkpt>
      <trkpt lat="48.79345" lon="2.12341">
        <ele>127.51</ele>
        <time>2012-04-12T08:58:19Z</time>
      </trkpt>
      <trkpt lat="48.79345" lon="2.12343">
        <ele>128.95</ele>
        <time>2012-04-12T08:58:23Z</time>
      </trkpt>
      <trkpt lat="48.79346" lon="2.1236">
        <ele>130.88</ele>
        <time>2012-04-12T08:58:31Z</time>
      </trkpt>
      <trkpt lat="48.79348" lon="2.12381">
        <ele>130.88</ele>
        <time>2012-04-12T08:58:41Z</time>
      </trkpt>
      <trkpt lat="48.79345" lon="2.12394">
        <ele>130.88</ele>
        <time>2012-04-12T08:58:49Z</time>
      </trkpt>
      <trkpt lat="48.79348" lon="2.12404">
        <ele>131.36</ele>
        <time>2012-04-12T08:59:01Z</time>
      </trkpt>
      <trkpt lat="48.79359" lon="2.12407">
        <ele>131.36</ele>
        <time>2012-04-12T08:59:14Z</time>
      </trkpt>
      <trkpt lat="48.7938" lon="2.12411">
        <ele>132.32</ele>
        <time>2012-04-12T08:59:31Z</time>
      </trkpt>
      <trkpt lat="48.79385" lon="2.12414">
        <ele>131.84</ele>
        <time>2012-04-12T08:59:47Z</time>
      </trkpt>
      <trkpt lat="48.79397" lon="2.12427">
        <ele>133.76</ele>
        <time>2012-04-12T09:00:00Z</time>
      </trkpt>
      <trkpt lat="48.79417" lon="2.12437">
        <ele>135.2</ele>
        <time>2012-04-12T09:00:17Z</time>
      </trkpt>
      <trkpt lat="48.79431" lon="2.12442">
        <ele>135.2</ele>
        <time>2012-04-12T09:00:29Z</time>
      </trkpt>
      <trkpt lat="48.79433" lon="2.12444">
        <ele>135.2</ele>
        <time>2012-04-12T09:00:31Z</time>
      </trkpt>
      <trkpt lat="48.79452" lon="2.12457">
        <ele>134.24</ele>
        <time>2012-04-12T09:00:47Z</time>
      </trkpt>
      <trkpt lat="48.79459" lon="2.12465">
        <ele>134.24</ele>
        <time>2012-04-12T09:01:05Z</time>
      </trkpt>
      <trkpt lat="48.79485" lon="2.12486">
        <ele>132.8</ele>
        <time>2012-04-12T09:01:23Z</time>
      </trkpt>
      <trkpt lat="48.79489" lon="2.1249">
        <ele>132.8</ele>
        <time>2012-04-12T09:01:26Z</time>
      </trkpt>
      <trkpt lat="48.79511" lon="2.12505">
        <ele>133.28</ele>
        <time>2012-04-12T09:01:43Z</time>
      </trkpt>
      <trkpt lat="48.79528" lon="2.12516">
        <ele>130.88</ele>
        <time>2012-04-12T09:01:59Z</time>
      </trkpt>
      <trkpt lat="48.79542" lon="2.12525">
        <ele>128.47</ele>
        <time>2012-04-12T09:02:16Z</time>
      </trkpt>
      <trkpt lat="48.79564" lon="2.12537">
        <ele>126.07</ele>
        <time>2012-04-12T09:02:35Z</time>
      </trkpt>
      <trkpt lat="48.79595" lon="2.12559">
        <ele>126.55</ele>
        <time>2012-04-12T09:02:58Z</time>
      </trkpt>
      <trkpt lat="48.79617" lon="2.1257">
        <ele>125.59</ele>
        <time>2012-04-12T09:03:21Z</time>
      </trkpt>
      <trkpt lat="48.79642" lon="2.12596">
        <ele>123.67</ele>
        <time>2012-04-12T09:03:42Z</time>
      </trkpt>
      <trkpt lat="48.79647" lon="2.12593">
        <ele>127.03</ele>
        <time>2012-04-12T09:03:58Z</time>
      </trkpt>
      <trkpt lat="48.79647" lon="2.12593">
        <ele>127.03</ele>
        <time>2012-04-12T09:04:21Z</time>
      </trkpt>
      <trkpt lat="48.79647" lon="2.12593">
        <ele>127.51</ele>
        <time>2012-04-12T09:04:41Z</time>
      </trkpt>
      <trkpt lat="48.79655" lon="2.12596">
        <ele>127.51</ele>
        <time>2012-04-12T09:05:01Z</time>
      </trkpt>
      <trkpt lat="48.79665" lon="2.12607">
        <ele>129.43</ele>
        <time>2012-04-12T09:05:12Z</time>
      </trkpt>
      <trkpt lat="48.79684" lon="2.1262">
        <ele>132.32</ele>
        <time>2012-04-12T09:05:28Z</time>
      </trkpt>
      <trkpt lat="48.79686" lon="2.12625">
        <ele>132.32</ele>
        <time>2012-04-12T09:05:42Z</time>
      </trkpt>
      <trkpt lat="48.79692" lon="2.12664">
        <ele>131.84</ele>
        <time>2012-04-12T09:05:58Z</time>
      </trkpt>
      <trkpt lat="48.79697" lon="2.12675">
        <ele>131.84</ele>
        <time>2012-04-12T09:06:17Z</time>
      </trkpt>
      <trkpt lat="48.79689" lon="2.12685">
        <ele>128.95</ele>
        <time>2012-04-12T09:06:34Z</time>
      </trkpt>
      <trkpt lat="48.79696" lon="2.12693">
        <ele>127.03</ele>
        <time>2012-04-12T09:06:50Z</time>
      </trkpt>
      <trkpt lat="48.79694" lon="2.12697">
        <ele>125.59</ele>
        <time>2012-04-12T09:07:11Z</time>
      </trkpt>
      <trkpt lat="48.79694" lon="2.12702">
        <ele>125.11</ele>
        <time>2012-04-12T09:07:14Z</time>
      </trkpt>
      <trkpt lat="48.79708" lon="2.12735">
        <ele>124.63</ele>
        <time>2012-04-12T09:07:34Z</time>
      </trkpt>
      <trkpt lat="48.7968" lon="2.1272">
        <ele>126.55</ele>
        <time>2012-04-12T09:07:48Z</time>
      </trkpt>
      <trkpt lat="48.79673" lon="2.12728">
        <ele>129.43</ele>
        <time>2012-04-12T09:07:55Z</time>
      </trkpt>
      <trkpt lat="48.79661" lon="2.12763">
        <ele>130.4</ele>
        <time>2012-04-12T09:08:15Z</time>
      </trkpt>
      <trkpt lat="48.79655" lon="2.12798">
        <ele>129.43</ele>
        <time>2012-04-12T09:08:34Z</time>
      </trkpt>
      <trkpt lat="48.7964" lon="2.12829">
        <ele>128.95</ele>
        <time>2012-04-12T09:08:55Z</time>
      </trkpt>
      <trkpt lat="48.79625" lon="2.12887">
        <ele>132.32</ele>
        <time>2012-04-12T09:09:21Z</time>
      </trkpt>
      <trkpt lat="48.79624" lon="2.12892">
        <ele>132.32</ele>
        <time>2012-04-12T09:09:24Z</time>
      </trkpt>
      <trkpt lat="48.79616" lon="2.12922">
        <ele>135.68</ele>
        <time>2012-04-12T09:09:40Z</time>
      </trkpt>
      <trkpt lat="48.79616" lon="2.12945">
        <ele>136.64</ele>
        <time>2012-04-12T09:09:56Z</time>
      </trkpt>
      <trkpt lat="48.79615" lon="2.12946">
        <ele>136.64</ele>
        <time>2012-04-12T09:09:57Z</time>
      </trkpt>
      <trkpt lat="48.79606" lon="2.12961">
        <ele>133.28</ele>
        <time>2012-04-12T09:10:08Z</time>
      </trkpt>
      <trkpt lat="48.79591" lon="2.12994">
        <ele>127.03</ele>
        <time>2012-04-12T09:10:29Z</time>
      </trkpt>
      <trkpt lat="48.79586" lon="2.13036">
        <ele>121.26</ele>
        <time>2012-04-12T09:10:51Z</time>
      </trkpt>
      <trkpt lat="48.79588" lon="2.13065">
        <ele>125.11</ele>
        <time>2012-04-12T09:11:06Z</time>
      </trkpt>
      <trkpt lat="48.79596" lon="2.13088">
        <ele>127.99</ele>
        <time>2012-04-12T09:11:25Z</time>
      </trkpt>
      <trkpt lat="48.79622" lon="2.13104">
        <ele>127.03</ele>
        <time>2012-04-12T09:11:45Z</time>
      </trkpt>
      <trkpt lat="48.7964" lon="2.13108">
        <ele>127.99</ele>
        <time>2012-04-12T09:12:02Z</time>
      </trkpt>
      <trkpt lat="48.79648" lon="2.13115">
        <ele>128.95</ele>
        <time>2012-04-12T09:12:12Z</time>
      </trkpt>
      <trkpt lat="48.79654" lon="2.13125">
        <ele>129.43</ele>
        <time>2012-04-12T09:12:17Z</time>
      </trkpt>
      <trkpt lat="48.79683" lon="2.13141">
        <ele>131.84</ele>
        <time>2012-04-12T09:12:37Z</time>
      </trkpt>
      <trkpt lat="48.79695" lon="2.1317">
        <ele>133.28</ele>
        <time>2012-04-12T09:12:52Z</time>
      </trkpt>
      <trkpt lat="48.79708" lon="2.13197">
        <ele>136.64</ele>
        <time>2012-04-12T09:13:07Z</time>
      </trkpt>
      <trkpt lat="48.79718" lon="2.13222">
        <ele>138.57</ele>
        <time>2012-04-12T09:13:21Z</time>
      </trkpt>
      <trkpt lat="48.7973" lon="2.13245">
        <ele>141.93</ele>
        <time>2012-04-12T09:13:34Z</time>
      </trkpt>
      <trkpt lat="48.7974" lon="2.13269">
        <ele>144.34</ele>
        <time>2012-04-12T09:13:49Z</time>
      </trkpt>
      <trkpt lat="48.79754" lon="2.13301">
        <ele>147.22</ele>
        <time>2012-04-12T09:14:09Z</time>
      </trkpt>
      <trkpt lat="48.7976" lon="2.1332">
        <ele>147.7</ele>
        <time>2012-04-12T09:14:20Z</time>
      </trkpt>
      <trkpt lat="48.79763" lon="2.13332">
        <ele>147.22</ele>
        <time>2012-04-12T09:14:26Z</time>
      </trkpt>
      <trkpt lat="48.7977" lon="2.13359">
        <ele>148.18</ele>
        <time>2012-04-12T09:14:41Z</time>
      </trkpt>
      <trkpt lat="48.79779" lon="2.13393">
        <ele>147.22</ele>
        <time>2012-04-12T09:15:00Z</time>
      </trkpt>
      <trkpt lat="48.79782" lon="2.13406">
        <ele>146.74</ele>
        <time>2012-04-12T09:15:08Z</time>
      </trkpt>
      <trkpt lat="48.79796" lon="2.13443">
        <ele>144.34</ele>
        <time>2012-04-12T09:15:30Z</time>
      </trkpt>
      <trkpt lat="48.79811" lon="2.13475">
        <ele>142.41</ele>
        <time>2012-04-12T09:15:46Z</time>
      </trkpt>
      <trkpt lat="48.79807" lon="2.13488">
        <ele>140.49</ele>
        <time>2012-04-12T09:15:53Z</time>
      </trkpt>
      <trkpt lat="48.79797" lon="2.13528">
        <ele>141.45</ele>
        <time>2012-04-12T09:16:11Z</time>
      </trkpt>
      <trkpt lat="48.79779" lon="2.13548">
        <ele>145.78</ele>
        <time>2012-04-12T09:16:27Z</time>
      </trkpt>
      <trkpt lat="48.79745" lon="2.13572">
        <ele>144.82</ele>
        <time>2012-04-12T09:16:46Z</time>
      </trkpt>
      <trkpt lat="48.79732" lon="2.13576">
        <ele>146.26</ele>
        <time>2012-04-12T09:16:52Z</time>
      </trkpt>
      <trkpt lat="48.79725" lon="2.13573">
        <ele>145.78</ele>
        <time>2012-04-12T09:16:55Z</time>
      </trkpt>
      <trkpt lat="48.79708" lon="2.13571">
        <ele>145.3</ele>
        <time>2012-04-12T09:17:05Z</time>
      </trkpt>
      <trkpt lat="48.79688" lon="2.13571">
        <ele>141.93</ele>
        <time>2012-04-12T09:17:21Z</time>
      </trkpt>
      <trkpt lat="48.79674" lon="2.13569">
        <ele>140.97</ele>
        <time>2012-04-12T09:17:33Z</time>
      </trkpt>
      <trkpt lat="48.7967" lon="2.1357">
        <ele>140.49</ele>
        <time>2012-04-12T09:17:37Z</time>
      </trkpt>
      <trkpt lat="48.79654" lon="2.13572">
        <ele>137.13</ele>
        <time>2012-04-12T09:17:53Z</time>
      </trkpt>
      <trkpt lat="48.7964" lon="2.13588">
        <ele>133.28</ele>
        <time>2012-04-12T09:18:11Z</time>
      </trkpt>
      <trkpt lat="48.79612" lon="2.13594">
        <ele>136.64</ele>
        <time>2012-04-12T09:18:31Z</time>
      </trkpt>
      <trkpt lat="48.7959" lon="2.13599">
        <ele>138.57</ele>
        <time>2012-04-12T09:18:47Z</time>
      </trkpt>
      <trkpt lat="48.7959" lon="2.13599">
        <ele>138.57</ele>
        <time>2012-04-12T09:19:11Z</time>
      </trkpt>
      <trkpt lat="48.79585" lon="2.13594">
        <ele>138.57</ele>
        <time>2012-04-12T09:19:32Z</time>
      </trkpt>
      <trkpt lat="48.79585" lon="2.13594">
        <ele>138.57</ele>
        <time>2012-04-12T09:19:58Z</time>
      </trkpt>
      <trkpt lat="48.79584" lon="2.13597">
        <ele>138.57</ele>
        <time>2012-04-12T09:20:24Z</time>
      </trkpt>
      <trkpt lat="48.7958" lon="2.13591">
        <ele>138.09</ele>
        <time>2012-04-12T09:20:47Z</time>
      </trkpt>
      <trkpt lat="48.79574" lon="2.13594">
        <ele>138.09</ele>
        <time>2012-04-12T09:21:06Z</time>
      </trkpt>
      <trkpt lat="48.79573" lon="2.13594">
        <ele>137.61</ele>
        <time>2012-04-12T09:21:31Z</time>
      </trkpt>
      <trkpt lat="48.79544" lon="2.1359">
        <ele>138.57</ele>
        <time>2012-04-12T09:21:53Z</time>
      </trkpt>
      <trkpt lat="48.79544" lon="2.1359">
        <ele>138.57</ele>
        <time>2012-04-12T09:22:21Z</time>
      </trkpt>
      <trkpt lat="48.79544" lon="2.13595">
        <ele>140.01</ele>
        <time>2012-04-12T09:22:48Z</time>
      </trkpt>
      <trkpt lat="48.79558" lon="2.13596">
        <ele>143.85</ele>
        <time>2012-04-12T09:23:08Z</time>
      </trkpt>
      <trkpt lat="48.7957" lon="2.13592">
        <ele>149.62</ele>
        <time>2012-04-12T09:23:33Z</time>
      </trkpt>
      <trkpt lat="48.79567" lon="2.13591">
        <ele>150.58</ele>
        <time>2012-04-12T09:23:59Z</time>
      </trkpt>
      <trkpt lat="48.79565" lon="2.13589">
        <ele>150.58</ele>
        <time>2012-04-12T09:24:27Z</time>
      </trkpt>
      <trkpt lat="48.79563" lon="2.13586">
        <ele>150.58</ele>
        <time>2012-04-12T09:24:52Z</time>
      </trkpt>
      <trkpt lat="48.79564" lon="2.1359">
        <ele>151.06</ele>
        <time>2012-04-12T09:25:07Z</time>
      </trkpt>
      <trkpt lat="48.79564" lon="2.13593">
        <ele>151.06</ele>
        <time>2012-04-12T09:25:09Z</time>
      </trkpt>
      <trkpt lat="48.79573" lon="2.13578">
        <ele>151.06</ele>
        <time>2012-04-12T09:26:01Z</time>
      </trkpt>
      <trkpt lat="48.79561" lon="2.13597">
        <ele>157.79</ele>
        <time>2012-04-12T09:26:17Z</time>
      </trkpt>
      <trkpt lat="48.79563" lon="2.13605">
        <ele>152.51</ele>
        <time>2012-04-12T09:26:35Z</time>
      </trkpt>
      <trkpt lat="48.7956" lon="2.13605">
        <ele>152.51</ele>
        <time>2012-04-12T09:26:53Z</time>
      </trkpt>
      <trkpt lat="48.79558" lon="2.1359">
        <ele>151.54</ele>
        <time>2012-04-12T09:27:16Z</time>
      </trkpt>
      <trkpt lat="48.7956" lon="2.13585">
        <ele>151.54</ele>
        <time>2012-04-12T09:27:23Z</time>
      </trkpt>
      <trkpt lat="48.79593" lon="2.13557">
        <ele>151.54</ele>
        <time>2012-04-12T09:27:42Z</time>
      </trkpt>
      <trkpt lat="48.7958" lon="2.13562">
        <ele>153.47</ele>
        <time>2012-04-12T09:27:59Z</time>
      </trkpt>
      <trkpt lat="48.79579" lon="2.13562">
        <ele>153.95</ele>
        <time>2012-04-12T09:28:16Z</time>
      </trkpt>
      <trkpt lat="48.7955" lon="2.13535">
        <ele>153.47</ele>
        <time>2012-04-12T09:28:36Z</time>
      </trkpt>
      <trkpt lat="48.79574" lon="2.13588">
        <ele>154.43</ele>
        <time>2012-04-12T09:30:14Z</time>
      </trkpt>
      <trkpt lat="48.79564" lon="2.13574">
        <ele>158.27</ele>
        <time>2012-04-12T09:30:38Z</time>
      </trkpt>
      <trkpt lat="48.79563" lon="2.13592">
        <ele>156.35</ele>
        <time>2012-04-12T09:30:59Z</time>
      </trkpt>
      <trkpt lat="48.79551" lon="2.13601">
        <ele>152.51</ele>
        <time>2012-04-12T09:31:15Z</time>
      </trkpt>
      <trkpt lat="48.79552" lon="2.13614">
        <ele>153.95</ele>
        <time>2012-04-12T09:31:35Z</time>
      </trkpt>
      <trkpt lat="48.79541" lon="2.13608">
        <ele>154.43</ele>
        <time>2012-04-12T09:31:56Z</time>
      </trkpt>
      <trkpt lat="48.79525" lon="2.13621">
        <ele>156.35</ele>
        <time>2012-04-12T09:32:18Z</time>
      </trkpt>
      <trkpt lat="48.79515" lon="2.13644">
        <ele>153.95</ele>
        <time>2012-04-12T09:32:39Z</time>
      </trkpt>
      <trkpt lat="48.79515" lon="2.13639">
        <ele>153.47</ele>
        <time>2012-04-12T09:32:45Z</time>
      </trkpt>
      <trkpt lat="48.79514" lon="2.13615">
        <ele>148.66</ele>
        <time>2012-04-12T09:33:06Z</time>
      </trkpt>
      <trkpt lat="48.79515" lon="2.13612">
        <ele>148.66</ele>
        <time>2012-04-12T09:33:30Z</time>
      </trkpt>
      <trkpt lat="48.79513" lon="2.136">
        <ele>145.3</ele>
        <time>2012-04-12T09:33:47Z</time>
      </trkpt>
      <trkpt lat="48.79513" lon="2.136">
        <ele>145.3</ele>
        <time>2012-04-12T09:34:10Z</time>
      </trkpt>
      <trkpt lat="48.79513" lon="2.13598">
        <ele>145.3</ele>
        <time>2012-04-12T09:34:33Z</time>
      </trkpt>
      <trkpt lat="48.79513" lon="2.13599">
        <ele>143.37</ele>
        <time>2012-04-12T09:34:52Z</time>
      </trkpt>
    </trkseg>
  </trk>
</gpx>